Wetterdaten: Donnerstag, 03.01.2019
Datum Zeit Temp. Aussen Temp. o. S. +5cm Feuchte Auss Luftdruck Regen Sonnenschein Regendauer Solar Windben Empfang
03.01.2019 00:00 0,1 C 0,0 C -0,6 C 92 % 1036,0 hPa 0,0 l/m 0 min 0 min 0 W/m 6,4 km/h (2 Bft) 97,87 %
03.01.2019 00:02 0,1 C 0,0 C -0,6 C 92 % 1035,9 hPa 0,0 l/m 0 min 0 min 0 W/m 3,2 km/h (1 Bft) 94,74 %
03.01.2019 00:04 0,1 C 0,0 C -0,6 C 92 % 1036,0 hPa 0,0 l/m 0 min 0 min 0 W/m 3,2 km/h (1 Bft) 97,87 %
03.01.2019 00:07 0,2 C 0,0 C -0,6 C 92 % 1036,0 hPa 0,0 l/m 0 min 0 min 0 W/m 3,2 km/h (1 Bft) 94,29 %
03.01.2019 00:08 0,2 C 0,0 C -0,6 C 92 % 1036,0 hPa 0,0 l/m 0 min 0 min 0 W/m 0,0 km/h (0 Bft) 95,83 %
03.01.2019 00:10 0,2 C 0,0 C -0,6 C 92 % 1036,0 hPa 0,0 l/m 0 min 0 min 0 W/m 0,0 km/h (0 Bft) 97,87 %
03.01.2019 00:12 0,2 C 0,0 C -0,6 C 92 % 1036,0 hPa 0,0 l/m 0 min 0 min 0 W/m 3,2 km/h (1 Bft) 97,83 %
03.01.2019 00:14 0,2 C 0,0 C -0,6 C 92 % 1036,0 hPa 0,0 l/m 0 min 0 min 0 W/m 6,4 km/h (2 Bft) 97,87 %
03.01.2019 00:16 0,2 C 0,0 C -0,6 C 92 % 1036,0 hPa 0,0 l/m 0 min 0 min 0 W/m 0,0 km/h (0 Bft) 97,87 %
03.01.2019 00:18 0,2 C 0,0 C -0,6 C 92 % 1036,0 hPa 0,0 l/m 0 min 0 min 0 W/m 0,0 km/h (0 Bft) 97,87 %
03.01.2019 00:20 0,2 C 0,0 C -0,6 C 92 % 1035,9 hPa 0,0 l/m 0 min 0 min 0 W/m 0,0 km/h (0 Bft) 95,74 %
03.01.2019 00:22 0,2 C 0,0 C -0,6 C 92 % 1036,0 hPa 0,0 l/m 0 min 0 min 0 W/m 0,0 km/h (0 Bft) 95,74 %
03.01.2019 00:24 0,3 C 0,0 C -0,6 C 92 % 1036,1 hPa 0,0 l/m 0 min 0 min 0 W/m 6,4 km/h (2 Bft) 95,65 %
03.01.2019 00:26 0,3 C 0,0 C -0,6 C 92 % 1036,1 hPa 0,0 l/m 0 min 0 min 0 W/m 3,2 km/h (1 Bft) 95,74 %
03.01.2019 00:28 0,3 C 0,0 C -0,6 C 93 % 1036,1 hPa 0,0 l/m 0 min 0 min 0 W/m 6,4 km/h (2 Bft) 95,74 %
03.01.2019 00:30 0,3 C 0,0 C 0,0 C 93 % 1036,1 hPa 0,0 l/m 0 min 0 min 0 W/m 3,2 km/h (1 Bft) 95,74 %
03.01.2019 00:32 0,3 C 0,0 C 0,0 C 93 % 1036,1 hPa 0,0 l/m 0 min 0 min 0 W/m 0,0 km/h (0 Bft) 93,62 %
03.01.2019 00:34 0,3 C 0,0 C -0,6 C 93 % 1036,2 hPa 0,0 l/m 0 min 0 min 0 W/m 3,2 km/h (1 Bft) 95,74 %
03.01.2019 00:36 0,4 C 0,0 C -0,6 C 93 % 1036,1 hPa 0,0 l/m 0 min 0 min 0 W/m 0,0 km/h (0 Bft) 95,65 %
03.01.2019 00:38 0,4 C 0,0 C -0,6 C 93 % 1036,2 hPa 0,0 l/m 0 min 0 min 0 W/m 0,0 km/h (0 Bft) 95,74 %
03.01.2019 00:40 0,4 C 0,0 C 0,0 C 93 % 1036,2 hPa 0,0 l/m 0 min 0 min 0 W/m 3,2 km/h (1 Bft) 95,74 %
03.01.2019 00:42 0,4 C 0,0 C 0,0 C 93 % 1036,2 hPa 0,0 l/m 0 min 0 min 0 W/m 0,0 km/h (0 Bft) 95,74 %
03.01.2019 00:44 0,4 C 0,0 C 0,0 C 93 % 1036,1 hPa 0,0 l/m 0 min 0 min 0 W/m 3,2 km/h (1 Bft) 93,62 %
03.01.2019 00:46 0,4 C 0,0 C 0,0 C 93 % 1036,1 hPa 0,0 l/m 0 min 0 min 0 W/m 3,2 km/h (1 Bft) 95,74 %
03.01.2019 00:48 0,4 C 0,0 C 0,0 C 93 % 1036,1 hPa 0,0 l/m 0 min 0 min 0 W/m 3,2 km/h (1 Bft) 95,65 %
03.01.2019 00:50 0,5 C 0,0 C 0,0 C 93 % 1036,1 hPa 0,0 l/m 0 min 0 min 0 W/m 3,2 km/h (1 Bft) 91,49 %
03.01.2019 00:52 0,5 C 0,0 C 0,0 C 93 % 1036,1 hPa 0,0 l/m 0 min 0 min 0 W/m 3,2 km/h (1 Bft) 93,62 %
03.01.2019 00:54 0,5 C 0,6 C 0,0 C 93 % 1036,2 hPa 0,0 l/m 0 min 0 min 0 W/m 3,2 km/h (1 Bft) 93,62 %
03.01.2019 00:56 0,5 C 0,6 C 0,0 C 93 % 1036,2 hPa 0,0 l/m 0 min 0 min 0 W/m 3,2 km/h (1 Bft) 95,74 %
03.01.2019 00:58 0,5 C 0,6 C 0,0 C 93 % 1036,2 hPa 0,0 l/m 0 min 0 min 0 W/m 3,2 km/h (1 Bft) 95,74 %
03.01.2019 01:00 0,5 C 0,6 C 0,0 C 93 % 1036,2 hPa 0,0 l/m 0 min 0 min 0 W/m 3,2 km/h (1 Bft) 95,65 %
03.01.2019 01:02 0,5 C 0,0 C 0,0 C 93 % 1036,2 hPa 0,0 l/m 0 min 0 min 0 W/m 3,2 km/h (1 Bft) 93,62 %
03.01.2019 01:04 0,5 C 0,6 C 0,0 C 93 % 1036,2 hPa 0,0 l/m 0 min 0 min 0 W/m 3,2 km/h (1 Bft) 95,74 %
03.01.2019 01:06 0,5 C 0,6 C 0,0 C 93 % 1036,1 hPa 0,0 l/m 0 min 0 min 0 W/m 3,2 km/h (1 Bft) 97,87 %
03.01.2019 01:08 0,5 C 0,6 C 0,0 C 94 % 1036,2 hPa 0,0 l/m 0 min 0 min 0 W/m 3,2 km/h (1 Bft) 97,87 %
03.01.2019 01:10 0,6 C 0,6 C 0,0 C 94 % 1036,1 hPa 0,0 l/m 0 min 0 min 0 W/m 3,2 km/h (1 Bft) 97,87 %
03.01.2019 01:12 0,6 C 0,6 C 0,0 C 93 % 1036,1 hPa 0,0 l/m 0 min 0 min 0 W/m 0,0 km/h (0 Bft) 97,83 %
03.01.2019 01:14 0,6 C 0,6 C 0,0 C 93 % 1036,1 hPa 0,0 l/m 0 min 0 min 0 W/m 0,0 km/h (0 Bft) 100,00 %
03.01.2019 01:16 0,6 C 0,6 C 0,0 C 94 % 1036,1 hPa 0,0 l/m 0 min 0 min 0 W/m 3,2 km/h (1 Bft) 100,00 %
03.01.2019 01:18 0,7 C 0,6 C 0,0 C 94 % 1036,1 hPa 0,0 l/m 0 min 0 min 0 W/m 0,0 km/h (0 Bft) 97,87 %
03.01.2019 01:20 0,7 C 0,6 C 0,0 C 94 % 1036,0 hPa 0,0 l/m 0 min 0 min 0 W/m 3,2 km/h (1 Bft) 97,87 %
03.01.2019 01:22 0,7 C 0,6 C 0,0 C 94 % 1036,0 hPa 0,0 l/m 0 min 0 min 0 W/m 3,2 km/h (1 Bft) 97,83 %
03.01.2019 01:24 0,7 C 0,6 C 0,0 C 94 % 1036,0 hPa 0,0 l/m 0 min 0 min 0 W/m 3,2 km/h (1 Bft) 100,00 %
03.01.2019 01:26 0,7 C 0,6 C 0,0 C 94 % 1035,9 hPa 0,0 l/m 0 min 0 min 0 W/m 0,0 km/h (0 Bft) 100,00 %
03.01.2019 01:28 0,7 C 0,6 C 0,0 C 94 % 1036,0 hPa 0,0 l/m 0 min 0 min 0 W/m 6,4 km/h (2 Bft) 97,87 %
03.01.2019 01:30 0,7 C 0,6 C 0,6 C 94 % 1036,0 hPa 0,0 l/m 0 min 0 min 0 W/m 3,2 km/h (1 Bft) 93,62 %
03.01.2019 01:32 0,8 C 0,6 C 0,6 C 94 % 1036,0 hPa 0,0 l/m 0 min 0 min 0 W/m 3,2 km/h (1 Bft) 100,00 %
03.01.2019 01:34 0,8 C 0,6 C 0,6 C 94 % 1036,0 hPa 0,0 l/m 0 min 0 min 0 W/m 3,2 km/h (1 Bft) 100,00 %
03.01.2019 01:36 0,8 C 0,6 C 0,6 C 94 % 1036,0 hPa 0,0 l/m 0 min 0 min 0 W/m 0,0 km/h (0 Bft) 97,83 %
03.01.2019 01:38 0,8 C 0,6 C 0,6 C 94 % 1035,9 hPa 0,0 l/m 0 min 0 min 0 W/m 0,0 km/h (0 Bft) 97,87 %
03.01.2019 01:40 0,8 C 0,6 C 0,6 C 94 % 1036,0 hPa 0,0 l/m 0 min 0 min 0 W/m 0,0 km/h (0 Bft) 100,00 %
03.01.2019 01:42 0,9 C 0,6 C 0,6 C 94 % 1036,0 hPa 0,0 l/m 0 min 0 min 0 W/m 0,0 km/h (0 Bft) 100,00 %
03.01.2019 01:44 0,9 C 0,6 C 0,6 C 94 % 1036,0 hPa 0,0 l/m 0 min 0 min 0 W/m 0,0 km/h (0 Bft) 95,74 %
03.01.2019 01:46 0,9 C 0,6 C 0,6 C 94 % 1036,0 hPa 0,0 l/m 0 min 0 min 0 W/m 6,4 km/h (2 Bft) 97,83 %
03.01.2019 01:48 0,9 C 0,6 C 0,6 C 94 % 1036,0 hPa 0,0 l/m 0 min 0 min 0 W/m 3,2 km/h (1 Bft) 97,87 %
03.01.2019 01:50 0,9 C 0,6 C 0,6 C 94 % 1036,0 hPa 0,0 l/m 0 min 0 min 0 W/m 3,2 km/h (1 Bft) 97,87 %
03.01.2019 01:52 0,9 C 0,6 C 0,6 C 94 % 1036,1 hPa 0,0 l/m 0 min 0 min 0 W/m 3,2 km/h (1 Bft) 97,87 %
03.01.2019 01:54 1,0 C 0,6 C 0,6 C 94 % 1036,1 hPa 0,0 l/m 0 min 0 min 0 W/m 6,4 km/h (2 Bft) 97,87 %
03.01.2019 01:56 1,0 C 0,6 C 0,6 C 94 % 1036,1 hPa 0,0 l/m 0 min 0 min 0 W/m 3,2 km/h (1 Bft) 97,87 %
03.01.2019 01:58 1,0 C 0,6 C 0,6 C 94 % 1036,1 hPa 0,0 l/m 0 min 0 min 0 W/m 3,2 km/h (1 Bft) 97,83 %
03.01.2019 02:00 1,0 C 0,6 C 0,6 C 94 % 1036,1 hPa 0,0 l/m 0 min 0 min 0 W/m 3,2 km/h (1 Bft) 97,87 %
03.01.2019 02:02 1,1 C 1,1 C 0,6 C 94 % 1036,1 hPa 0,0 l/m 0 min 0 min 0 W/m 0,0 km/h (0 Bft) 95,74 %
03.01.2019 02:04 1,1 C 1,1 C 0,6 C 94 % 1036,1 hPa 0,0 l/m 0 min 0 min 0 W/m 9,7 km/h (2 Bft) 97,87 %
03.01.2019 02:06 1,1 C 1,1 C 0,6 C 94 % 1036,2 hPa 0,0 l/m 0 min 0 min 0 W/m 6,4 km/h (2 Bft) 97,87 %
03.01.2019 02:08 1,1 C 1,1 C 0,6 C 94 % 1036,1 hPa 0,0 l/m 0 min 0 min 0 W/m 0,0 km/h (0 Bft) 97,87 %
03.01.2019 02:10 1,1 C 1,1 C 0,6 C 94 % 1036,1 hPa 0,0 l/m 0 min 0 min 0 W/m 3,2 km/h (1 Bft) 97,83 %
03.01.2019 02:12 1,1 C 1,1 C 0,6 C 95 % 1036,1 hPa 0,0 l/m 0 min 0 min 0 W/m 0,0 km/h (0 Bft) 97,87 %
03.01.2019 02:14 1,1 C 1,1 C 0,6 C 95 % 1036,2 hPa 0,0 l/m 0 min 0 min 0 W/m 3,2 km/h (1 Bft) 97,87 %
03.01.2019 02:16 1,2 C 1,1 C 0,6 C 95 % 1036,2 hPa 0,0 l/m 0 min 0 min 0 W/m 3,2 km/h (1 Bft) 97,87 %
03.01.2019 02:18 1,2 C 1,1 C 0,6 C 95 % 1036,2 hPa 0,0 l/m 0 min 0 min 0 W/m 6,4 km/h (2 Bft) 97,87 %
03.01.2019 02:20 1,2 C 1,1 C 0,6 C 95 % 1036,2 hPa 0,0 l/m 0 min 0 min 0 W/m 3,2 km/h (1 Bft) 97,87 %
03.01.2019 02:22 1,2 C 1,1 C 0,6 C 95 % 1036,3 hPa 0,0 l/m 0 min 0 min 0 W/m 6,4 km/h (2 Bft) 97,83 %
03.01.2019 02:24 1,2 C 1,1 C 0,6 C 95 % 1036,2 hPa 0,0 l/m 0 min 0 min 0 W/m 6,4 km/h (2 Bft) 100,00 %
03.01.2019 02:26 1,2 C 1,1 C 0,6 C 95 % 1036,3 hPa 0,0 l/m 0 min 0 min 0 W/m 6,4 km/h (2 Bft) 100,00 %
03.01.2019 02:28 1,3 C 1,1 C 0,6 C 95 % 1036,2 hPa 0,0 l/m 0 min 0 min 0 W/m 6,4 km/h (2 Bft) 100,00 %
03.01.2019 02:30 1,3 C 1,1 C 0,6 C 95 % 1036,2 hPa 0,0 l/m 0 min 0 min 0 W/m 3,2 km/h (1 Bft) 97,87 %
03.01.2019 02:32 1,3 C 1,1 C 0,6 C 95 % 1036,4 hPa 0,0 l/m 0 min 0 min 0 W/m 6,4 km/h (2 Bft) 100,00 %
03.01.2019 02:34 1,3 C 1,1 C 0,6 C 95 % 1036,5 hPa 0,0 l/m 0 min 0 min 0 W/m 3,2 km/h (1 Bft) 100,00 %
03.01.2019 02:36 1,3 C 1,1 C 0,6 C 95 % 1036,5 hPa 0,0 l/m 0 min 0 min 0 W/m 3,2 km/h (1 Bft) 100,00 %
03.01.2019 02:38 1,3 C 1,1 C 0,6 C 95 % 1036,5 hPa 0,0 l/m 0 min 0 min 0 W/m 3,2 km/h (1 Bft) 100,00 %
03.01.2019 02:40 1,3 C 1,1 C 0,6 C 95 % 1036,6 hPa 0,0 l/m 0 min 0 min 0 W/m 3,2 km/h (1 Bft) 100,00 %
03.01.2019 02:42 1,4 C 1,1 C 0,6 C 95 % 1036,6 hPa 0,0 l/m 0 min 0 min 0 W/m 6,4 km/h (2 Bft) 100,00 %
03.01.2019 02:44 1,4 C 1,1 C 0,6 C 95 % 1036,6 hPa 0,0 l/m 0 min 0 min 0 W/m 3,2 km/h (1 Bft) 100,00 %
03.01.2019 02:46 1,4 C 1,1 C 0,6 C 95 % 1036,6 hPa 0,0 l/m 0 min 0 min 0 W/m 3,2 km/h (1 Bft) 100,00 %
03.01.2019 02:48 1,4 C 1,1 C 0,6 C 95 % 1036,7 hPa 0,0 l/m 0 min 0 min 0 W/m 0,0 km/h (0 Bft) 100,00 %
03.01.2019 02:50 1,4 C 1,1 C 0,6 C 95 % 1036,7 hPa 0,0 l/m 0 min 0 min 0 W/m 3,2 km/h (1 Bft) 100,00 %
03.01.2019 02:52 1,4 C 1,1 C 0,6 C 95 % 1036,6 hPa 0,0 l/m 0 min 0 min 0 W/m 3,2 km/h (1 Bft) 100,00 %
03.01.2019 02:54 1,4 C 1,1 C 0,6 C 95 % 1036,7 hPa 0,0 l/m 0 min 0 min 0 W/m 0,0 km/h (0 Bft) 100,00 %
03.01.2019 02:56 1,4 C 1,1 C 0,6 C 95 % 1036,7 hPa 0,0 l/m 0 min 0 min 0 W/m 6,4 km/h (2 Bft) 100,00 %
03.01.2019 02:58 1,5 C 1,1 C 0,6 C 95 % 1036,8 hPa 0,0 l/m 0 min 0 min 0 W/m 6,4 km/h (2 Bft) 100,00 %
03.01.2019 03:00 1,5 C 1,1 C 0,6 C 95 % 1036,8 hPa 0,0 l/m 0 min 0 min 0 W/m 3,2 km/h (1 Bft) 97,87 %
03.01.2019 03:02 1,5 C 1,1 C 1,1 C 95 % 1036,8 hPa 0,0 l/m 0 min 0 min 0 W/m 6,4 km/h (2 Bft) 97,87 %
03.01.2019 03:04 1,5 C 1,1 C 1,1 C 95 % 1036,8 hPa 0,0 l/m 0 min 0 min 0 W/m 3,2 km/h (1 Bft) 97,87 %
03.01.2019 03:06 1,5 C 1,1 C 1,1 C 95 % 1036,8 hPa 0,0 l/m 0 min 0 min 0 W/m 3,2 km/h (1 Bft) 95,74 %
03.01.2019 03:08 1,5 C 1,1 C 1,1 C 95 % 1036,8 hPa 0,0 l/m 0 min 0 min 0 W/m 6,4 km/h (2 Bft) 95,65 %
03.01.2019 03:10 1,6 C 1,1 C 1,1 C 95 % 1036,8 hPa 0,0 l/m 0 min 0 min 0 W/m 3,2 km/h (1 Bft) 97,87 %
03.01.2019 03:12 1,6 C 1,1 C 0,6 C 95 % 1036,8 hPa 0,0 l/m 0 min 0 min 0 W/m 3,2 km/h (1 Bft) 95,74 %
03.01.2019 03:14 1,6 C 1,1 C 0,6 C 95 % 1036,8 hPa 0,0 l/m 0 min 0 min 0 W/m 3,2 km/h (1 Bft) 95,74 %
03.01.2019 03:16 1,6 C 1,1 C 1,1 C 95 % 1036,8 hPa 0,0 l/m 0 min 0 min 0 W/m 3,2 km/h (1 Bft) 95,74 %
03.01.2019 03:18 1,6 C 1,1 C 1,1 C 95 % 1036,8 hPa 0,0 l/m 0 min 0 min 0 W/m 3,2 km/h (1 Bft) 97,87 %
03.01.2019 03:20 1,6 C 1,1 C 1,1 C 95 % 1036,8 hPa 0,0 l/m 0 min 0 min 0 W/m 3,2 km/h (1 Bft) 97,83 %
03.01.2019 03:22 1,6 C 1,1 C 1,1 C 95 % 1036,8 hPa 0,0 l/m 0 min 0 min 0 W/m 0,0 km/h (0 Bft) 97,87 %
03.01.2019 03:24 1,6 C 1,1 C 1,1 C 95 % 1036,8 hPa 0,0 l/m 0 min 0 min 0 W/m 6,4 km/h (2 Bft) 97,87 %
03.01.2019 03:26 1,6 C 1,1 C 1,1 C 95 % 1036,8 hPa 0,0 l/m 0 min 0 min 0 W/m 3,2 km/h (1 Bft) 95,74 %
03.01.2019 03:28 1,6 C 1,1 C 1,1 C 95 % 1036,9 hPa 0,0 l/m 0 min 0 min 0 W/m 3,2 km/h (1 Bft) 97,87 %
03.01.2019 03:30 1,7 C 1,1 C 1,1 C 95 % 1036,9 hPa 0,0 l/m 0 min 0 min 0 W/m 3,2 km/h (1 Bft) 97,83 %
03.01.2019 03:32 1,7 C 1,1 C 1,1 C 95 % 1036,9 hPa 0,0 l/m 0 min 0 min 0 W/m 3,2 km/h (1 Bft) 97,87 %
03.01.2019 03:34 1,7 C 1,7 C 1,1 C 95 % 1036,8 hPa 0,0 l/m 0 min 0 min 0 W/m 3,2 km/h (1 Bft) 95,74 %
03.01.2019 03:36 1,7 C 1,7 C 1,1 C 95 % 1036,7 hPa 0,0 l/m 0 min 0 min 0 W/m 6,4 km/h (2 Bft) 100,00 %
03.01.2019 03:38 1,7 C 1,7 C 1,1 C 95 % 1036,7 hPa 0,0 l/m 0 min 0 min 0 W/m 6,4 km/h (2 Bft) 97,87 %
03.01.2019 03:40 1,7 C 1,7 C 1,1 C 95 % 1036,7 hPa 0,0 l/m 0 min 0 min 0 W/m 6,4 km/h (2 Bft) 97,87 %
03.01.2019 03:42 1,7 C 1,1 C 1,1 C 95 % 1036,7 hPa 0,0 l/m 0 min 0 min 0 W/m 3,2 km/h (1 Bft) 95,65 %
03.01.2019 03:44 1,7 C 1,1 C 1,1 C 95 % 1036,7 hPa 0,0 l/m 0 min 0 min 0 W/m 3,2 km/h (1 Bft) 97,87 %
03.01.2019 03:46 1,7 C 1,1 C 1,1 C 95 % 1036,7 hPa 0,0 l/m 0 min 0 min 0 W/m 6,4 km/h (2 Bft) 97,87 %
03.01.2019 03:48 1,7 C 1,1 C 1,1 C 95 % 1036,8 hPa 0,0 l/m 0 min 0 min 0 W/m 3,2 km/h (1 Bft) 97,87 %
03.01.2019 03:50 1,7 C 1,1 C 1,1 C 95 % 1036,7 hPa 0,0 l/m 0 min 0 min 0 W/m 3,2 km/h (1 Bft) 93,62 %
03.01.2019 03:52 1,7 C 1,1 C 1,1 C 95 % 1036,7 hPa 0,0 l/m 0 min 0 min 0 W/m 3,2 km/h (1 Bft) 97,87 %
03.01.2019 03:54 1,8 C 1,7 C 1,1 C 95 % 1036,6 hPa 0,0 l/m 0 min 0 min 0 W/m 6,4 km/h (2 Bft) 95,65 %
03.01.2019 03:56 1,8 C 1,7 C 1,1 C 95 % 1036,6 hPa 0,0 l/m 0 min 0 min 0 W/m 3,2 km/h (1 Bft) 93,62 %
03.01.2019 03:58 1,8 C 1,7 C 1,1 C 95 % 1036,6 hPa 0,0 l/m 0 min 0 min 0 W/m 3,2 km/h (1 Bft) 97,87 %
03.01.2019 04:00 1,8 C 1,7 C 1,1 C 95 % 1036,6 hPa 0,0 l/m 0 min 0 min 0 W/m 6,4 km/h (2 Bft) 95,74 %
03.01.2019 04:05 1,8 C 1,7 C 1,1 C 95 % 1036,4 hPa 0,0 l/m 0 min 0 min 0 W/m 9,7 km/h (2 Bft) 100,00 %
03.01.2019 04:06 1,8 C 1,7 C 1,1 C 95 % 1036,3 hPa 0,0 l/m 0 min 0 min 0 W/m 3,2 km/h (1 Bft) 100,00 %
03.01.2019 04:08 1,8 C 1,7 C 1,1 C 95 % 1036,2 hPa 0,0 l/m 0 min 0 min 0 W/m 6,4 km/h (2 Bft) 100,00 %
03.01.2019 04:10 1,8 C 1,7 C 1,1 C 95 % 1036,2 hPa 0,0 l/m 0 min 0 min 0 W/m 6,4 km/h (2 Bft) 95,74 %
03.01.2019 04:12 1,8 C 1,7 C 1,1 C 95 % 1036,3 hPa 0,0 l/m 0 min 0 min 0 W/m 6,4 km/h (2 Bft) 95,74 %
03.01.2019 04:14 1,8 C 1,7 C 1,1 C 95 % 1036,2 hPa 0,0 l/m 0 min 0 min 0 W/m 6,4 km/h (2 Bft) 93,62 %
03.01.2019 04:16 1,8 C 1,7 C 1,1 C 95 % 1036,2 hPa 0,0 l/m 0 min 0 min 0 W/m 3,2 km/h (1 Bft) 95,65 %
03.01.2019 04:18 1,9 C 1,7 C 1,1 C 95 % 1036,2 hPa 0,0 l/m 0 min 0 min 0 W/m 6,4 km/h (2 Bft) 93,62 %
03.01.2019 04:20 1,9 C 1,7 C 1,1 C 95 % 1036,0 hPa 0,0 l/m 0 min 0 min 0 W/m 9,7 km/h (2 Bft) 95,74 %
03.01.2019 04:22 1,9 C 1,7 C 1,1 C 95 % 1036,1 hPa 0,0 l/m 0 min 2 min 0 W/m 9,7 km/h (2 Bft) 95,74 %
03.01.2019 04:24 1,9 C 1,7 C 1,1 C 95 % 1036,1 hPa 0,0 l/m 0 min 0 min 0 W/m 3,2 km/h (1 Bft) 95,74 %
03.01.2019 04:26 1,9 C 1,7 C 1,1 C 95 % 1036,2 hPa 0,0 l/m 0 min 0 min 0 W/m 6,4 km/h (2 Bft) 95,74 %
03.01.2019 04:28 1,9 C 1,7 C 1,1 C 95 % 1036,2 hPa 0,0 l/m 0 min 0 min 0 W/m 3,2 km/h (1 Bft) 95,74 %
03.01.2019 04:30 2,0 C 1,7 C 1,1 C 95 % 1036,2 hPa 0,0 l/m 0 min 0 min 0 W/m 3,2 km/h (1 Bft) 93,48 %
03.01.2019 04:32 2,0 C 1,7 C 1,1 C 95 % 1036,1 hPa 0,0 l/m 0 min 0 min 0 W/m 3,2 km/h (1 Bft) 95,74 %
03.01.2019 04:34 2,0 C 1,7 C 1,1 C 95 % 1036,1 hPa 0,0 l/m 0 min 2 min 0 W/m 9,7 km/h (2 Bft) 95,74 %
03.01.2019 04:36 2,0 C 1,7 C 1,1 C 95 % 1036,0 hPa 0,0 l/m 0 min 0 min 0 W/m 9,7 km/h (2 Bft) 95,74 %
03.01.2019 04:38 2,1 C 1,7 C 1,1 C 95 % 1036,0 hPa 0,0 l/m 0 min 0 min 0 W/m 0,0 km/h (0 Bft) 95,74 %
03.01.2019 04:40 2,1 C 1,7 C 1,1 C 95 % 1035,9 hPa 0,0 l/m 0 min 0 min 0 W/m 3,2 km/h (1 Bft) 95,65 %
03.01.2019 04:42 2,1 C 1,7 C 1,1 C 96 % 1036,0 hPa 0,0 l/m 0 min 0 min 0 W/m 3,2 km/h (1 Bft) 95,74 %
03.01.2019 04:44 2,1 C 1,7 C 1,1 C 96 % 1035,9 hPa 0,0 l/m 0 min 0 min 0 W/m 3,2 km/h (1 Bft) 95,74 %
03.01.2019 04:46 2,1 C 1,7 C 1,1 C 96 % 1036,0 hPa 0,0 l/m 0 min 0 min 0 W/m 0,0 km/h (0 Bft) 95,74 %
03.01.2019 04:48 2,1 C 1,7 C 1,1 C 96 % 1036,0 hPa 0,0 l/m 0 min 0 min 0 W/m 6,4 km/h (2 Bft) 97,87 %
03.01.2019 04:50 2,1 C 1,7 C 1,1 C 96 % 1036,0 hPa 0,0 l/m 0 min 0 min 0 W/m 9,7 km/h (2 Bft) 100,00 %
03.01.2019 04:52 2,1 C 1,7 C 1,1 C 96 % 1035,9 hPa 0,0 l/m 0 min 0 min 0 W/m 6,4 km/h (2 Bft) 100,00 %
03.01.2019 04:54 2,1 C 1,7 C 1,1 C 96 % 1035,9 hPa 0,0 l/m 0 min 0 min 0 W/m 6,4 km/h (2 Bft) 97,87 %
03.01.2019 04:56 2,2 C 1,7 C 1,1 C 96 % 1035,9 hPa 0,0 l/m 0 min 0 min 0 W/m 3,2 km/h (1 Bft) 100,00 %
03.01.2019 04:58 2,2 C 1,7 C 1,1 C 96 % 1036,0 hPa 0,0 l/m 0 min 0 min 0 W/m 6,4 km/h (2 Bft) 97,87 %
03.01.2019 05:00 2,2 C 1,7 C 1,1 C 96 % 1036,1 hPa 0,0 l/m 0 min 0 min 0 W/m 6,4 km/h (2 Bft) 100,00 %
03.01.2019 05:02 2,2 C 1,7 C 1,1 C 96 % 1035,9 hPa 0,0 l/m 0 min 0 min 0 W/m 3,2 km/h (1 Bft) 97,87 %
03.01.2019 05:04 2,2 C 1,7 C 1,1 C 96 % 1036,0 hPa 0,0 l/m 0 min 0 min 0 W/m 3,2 km/h (1 Bft) 100,00 %
03.01.2019 05:05 2,2 C 1,7 C 1,1 C 96 % 1035,9 hPa 0,0 l/m 0 min 0 min 0 W/m 3,2 km/h (1 Bft) 100,00 %
03.01.2019 05:10 2,2 C 1,7 C 1,1 C 96 % 1036,1 hPa 0,0 l/m 0 min 0 min 0 W/m 3,2 km/h (1 Bft) 100,00 %
03.01.2019 05:12 2,2 C 1,7 C 1,1 C 96 % 1036,0 hPa 0,0 l/m 0 min 0 min 0 W/m 3,2 km/h (1 Bft) 93,55 %
03.01.2019 05:14 2,2 C 1,7 C 1,1 C 96 % 1035,9 hPa 0,0 l/m 0 min 0 min 0 W/m 3,2 km/h (1 Bft) 97,83 %
03.01.2019 05:16 2,2 C 1,7 C 1,1 C 96 % 1036,0 hPa 0,0 l/m 0 min 0 min 0 W/m 6,4 km/h (2 Bft) 97,87 %
03.01.2019 05:18 2,2 C 1,7 C 1,1 C 96 % 1035,9 hPa 0,0 l/m 0 min 0 min 0 W/m 3,2 km/h (1 Bft) 100,00 %
03.01.2019 05:20 2,2 C 1,7 C 1,1 C 96 % 1036,0 hPa 0,0 l/m 0 min 0 min 0 W/m 3,2 km/h (1 Bft) 100,00 %
03.01.2019 05:22 2,2 C 1,7 C 1,1 C 96 % 1036,1 hPa 0,0 l/m 0 min 0 min 0 W/m 0,0 km/h (0 Bft) 96,00 %
03.01.2019 05:24 2,2 C 1,7 C 1,1 C 96 % 1036,0 hPa 0,0 l/m 0 min 0 min 0 W/m 0,0 km/h (0 Bft) 100,00 %
03.01.2019 05:26 2,2 C 1,7 C 1,1 C 96 % 1036,0 hPa 0,0 l/m 0 min 0 min 0 W/m 3,2 km/h (1 Bft) 97,96 %
03.01.2019 05:28 2,2 C 1,7 C 1,1 C 96 % 1036,1 hPa 0,0 l/m 0 min 0 min 0 W/m 3,2 km/h (1 Bft) 97,87 %
03.01.2019 05:30 2,2 C 1,7 C 1,1 C 96 % 1036,0 hPa 0,0 l/m 0 min 0 min 0 W/m 0,0 km/h (0 Bft) 100,00 %
03.01.2019 05:32 2,2 C 1,7 C 1,1 C 96 % 1036,1 hPa 0,0 l/m 0 min 0 min 0 W/m 6,4 km/h (2 Bft) 97,87 %
03.01.2019 05:34 2,2 C 1,7 C 1,1 C 96 % 1036,1 hPa 0,0 l/m 0 min 0 min 0 W/m 0,0 km/h (0 Bft) 100,00 %
03.01.2019 05:36 2,2 C 1,7 C 1,1 C 96 % 1036,0 hPa 0,0 l/m 0 min 0 min 0 W/m 3,2 km/h (1 Bft) 100,00 %
03.01.2019 05:38 2,2 C 1,7 C 1,1 C 96 % 1036,0 hPa 0,0 l/m 0 min 0 min 0 W/m 3,2 km/h (1 Bft) 97,44 %
03.01.2019 05:40 2,2 C 1,7 C 1,1 C 96 % 1036,1 hPa 0,0 l/m 0 min 0 min 0 W/m 0,0 km/h (0 Bft) 97,83 %
03.01.2019 05:42 2,2 C 1,7 C 1,1 C 96 % 1036,0 hPa 0,0 l/m 0 min 0 min 0 W/m 3,2 km/h (1 Bft) 95,92 %
03.01.2019 05:44 2,2 C 1,7 C 1,1 C 96 % 1036,1 hPa 0,0 l/m 0 min 0 min 0 W/m 3,2 km/h (1 Bft) 97,87 %
03.01.2019 05:46 2,2 C 1,7 C 1,1 C 96 % 1036,1 hPa 0,0 l/m 0 min 0 min 0 W/m 6,4 km/h (2 Bft) 97,87 %
03.01.2019 05:48 2,3 C 1,7 C 1,1 C 96 % 1036,0 hPa 0,0 l/m 0 min 0 min 0 W/m 3,2 km/h (1 Bft) 97,87 %
03.01.2019 05:50 2,2 C 1,7 C 1,1 C 96 % 1036,1 hPa 0,0 l/m 0 min 0 min 0 W/m 3,2 km/h (1 Bft) 95,65 %
03.01.2019 05:52 2,2 C 1,7 C 1,1 C 96 % 1036,1 hPa 0,0 l/m 0 min 0 min 0 W/m 0,0 km/h (0 Bft) 97,87 %
03.01.2019 05:54 2,3 C 1,7 C 1,7 C 96 % 1036,0 hPa 0,0 l/m 0 min 0 min 0 W/m 6,4 km/h (2 Bft) 95,74 %
03.01.2019 05:56 2,3 C 1,7 C 1,7 C 96 % 1036,0 hPa 0,0 l/m 0 min 0 min 0 W/m 0,0 km/h (0 Bft) 95,24 %
03.01.2019 05:58 2,3 C 1,7 C 1,7 C 96 % 1036,0 hPa 0,0 l/m 0 min 0 min 0 W/m 0,0 km/h (0 Bft) 98,00 %
03.01.2019 06:00 2,3 C 1,7 C 1,7 C 96 % 1036,1 hPa 0,0 l/m 0 min 0 min 0 W/m 6,4 km/h (2 Bft) 93,62 %
03.01.2019 06:02 2,3 C 1,7 C 1,7 C 96 % 1036,1 hPa 0,0 l/m 0 min 0 min 0 W/m 3,2 km/h (1 Bft) 97,87 %
03.01.2019 06:04 2,3 C 1,7 C 1,7 C 96 % 1036,1 hPa 0,0 l/m 0 min 0 min 0 W/m 3,2 km/h (1 Bft) 95,65 %
03.01.2019 06:08 2,3 C 1,7 C 1,7 C 96 % 1036,1 hPa 0,0 l/m 0 min 0 min 0 W/m 3,2 km/h (1 Bft) 96,81 %
03.01.2019 06:10 2,3 C 1,7 C 1,7 C 96 % 1036,2 hPa 0,0 l/m 0 min 0 min 0 W/m 0,0 km/h (0 Bft) 97,87 %
03.01.2019 06:12 2,3 C 1,7 C 1,1 C 96 % 1036,1 hPa 0,0 l/m 0 min 0 min 0 W/m 0,0 km/h (0 Bft) 97,87 %
03.01.2019 06:14 2,3 C 2,2 C 1,7 C 96 % 1036,1 hPa 0,0 l/m 0 min 0 min 0 W/m 0,0 km/h (0 Bft) 97,87 %
03.01.2019 06:16 2,3 C 1,7 C 1,7 C 96 % 1036,2 hPa 0,0 l/m 0 min 0 min 0 W/m 0,0 km/h (0 Bft) 97,83 %
03.01.2019 06:18 2,3 C 2,2 C 1,7 C 96 % 1036,1 hPa 0,0 l/m 0 min 0 min 0 W/m 6,4 km/h (2 Bft) 93,62 %
03.01.2019 06:20 2,3 C 2,2 C 1,7 C 96 % 1036,0 hPa 0,0 l/m 0 min 2 min 0 W/m 9,7 km/h (2 Bft) 95,74 %
03.01.2019 06:22 2,3 C 1,7 C 1,7 C 96 % 1036,1 hPa 0,0 l/m 0 min 2 min 0 W/m 6,4 km/h (2 Bft) 93,62 %
03.01.2019 06:24 2,3 C 1,7 C 1,1 C 96 % 1036,1 hPa 0,0 l/m 0 min 0 min 0 W/m 9,7 km/h (2 Bft) 95,74 %
03.01.2019 06:26 2,3 C 1,7 C 1,1 C 96 % 1036,2 hPa 0,0 l/m 0 min 0 min 0 W/m 3,2 km/h (1 Bft) 95,74 %
03.01.2019 06:28 2,3 C 1,7 C 1,1 C 96 % 1036,1 hPa 0,0 l/m 0 min 0 min 0 W/m 6,4 km/h (2 Bft) 97,83 %
03.01.2019 06:30 2,4 C 1,7 C 1,1 C 96 % 1036,0 hPa 0,0 l/m 0 min 0 min 0 W/m 3,2 km/h (1 Bft) 100,00 %
03.01.2019 06:32 2,4 C 1,7 C 1,1 C 96 % 1036,0 hPa 0,0 l/m 0 min 0 min 0 W/m 6,4 km/h (2 Bft) 93,62 %
03.01.2019 06:34 2,4 C 1,7 C 1,1 C 96 % 1036,0 hPa 0,0 l/m 0 min 0 min 0 W/m 6,4 km/h (2 Bft) 97,87 %
03.01.2019 06:36 2,4 C 1,7 C 1,1 C 96 % 1036,0 hPa 0,0 l/m 0 min 0 min 0 W/m 3,2 km/h (1 Bft) 97,87 %
03.01.2019 06:38 2,4 C 1,7 C 1,1 C 96 % 1036,0 hPa 0,0 l/m 0 min 0 min 0 W/m 3,2 km/h (1 Bft) 97,87 %
03.01.2019 06:40 2,4 C 1,7 C 1,1 C 96 % 1036,0 hPa 0,0 l/m 0 min 0 min 0 W/m 6,4 km/h (2 Bft) 95,65 %
03.01.2019 06:42 2,4 C 1,7 C 1,1 C 96 % 1036,0 hPa 0,0 l/m 0 min 0 min 0 W/m 3,2 km/h (1 Bft) 97,87 %
03.01.2019 06:44 2,4 C 1,7 C 1,1 C 96 % 1036,0 hPa 0,0 l/m 0 min 0 min 0 W/m 3,2 km/h (1 Bft) 97,87 %
03.01.2019 06:46 2,4 C 1,7 C 1,1 C 96 % 1036,0 hPa 0,0 l/m 0 min 0 min 0 W/m 6,4 km/h (2 Bft) 95,74 %
03.01.2019 06:48 2,4 C 1,7 C 1,1 C 96 % 1036,0 hPa 0,0 l/m 0 min 2 min 0 W/m 3,2 km/h (1 Bft) 97,87 %
03.01.2019 06:50 2,4 C 1,7 C 1,1 C 96 % 1036,0 hPa 0,0 l/m 0 min 2 min 0 W/m 6,4 km/h (2 Bft) 93,62 %
03.01.2019 06:52 2,4 C 1,7 C 1,1 C 96 % 1036,0 hPa 0,0 l/m 0 min 2 min 0 W/m 6,4 km/h (2 Bft) 95,65 %
03.01.2019 06:54 2,4 C 1,7 C 1,1 C 96 % 1036,0 hPa 0,0 l/m 0 min 0 min 0 W/m 3,2 km/h (1 Bft) 97,87 %
03.01.2019 06:56 2,4 C 1,7 C 1,1 C 96 % 1036,0 hPa 0,0 l/m 0 min 0 min 0 W/m 6,4 km/h (2 Bft) 97,87 %
03.01.2019 06:58 2,4 C 1,7 C 1,1 C 96 % 1036,0 hPa 0,0 l/m 0 min 0 min 0 W/m 6,4 km/h (2 Bft) 97,87 %
03.01.2019 07:00 2,4 C 1,7 C 1,1 C 96 % 1036,0 hPa 0,0 l/m 0 min 0 min 0 W/m 3,2 km/h (1 Bft) 97,87 %
03.01.2019 07:02 2,4 C 1,7 C 1,1 C 96 % 1036,0 hPa 0,0 l/m 0 min 0 min 0 W/m 6,4 km/h (2 Bft) 95,65 %
03.01.2019 07:04 2,4 C 1,7 C 1,1 C 96 % 1036,1 hPa 0,0 l/m 0 min 0 min 0 W/m 6,4 km/h (2 Bft) 97,87 %
03.01.2019 07:06 2,4 C 1,7 C 1,1 C 96 % 1036,0 hPa 0,0 l/m 0 min 0 min 0 W/m 3,2 km/h (1 Bft) 97,87 %
03.01.2019 07:08 2,4 C 1,7 C 1,1 C 96 % 1036,0 hPa 0,0 l/m 0 min 0 min 0 W/m 0,0 km/h (0 Bft) 97,87 %
03.01.2019 07:10 2,4 C 1,7 C 1,1 C 96 % 1036,0 hPa 0,0 l/m 0 min 0 min 0 W/m 0,0 km/h (0 Bft) 93,62 %
03.01.2019 07:12 2,4 C 1,7 C 1,1 C 96 % 1036,1 hPa 0,0 l/m 0 min 0 min 0 W/m 0,0 km/h (0 Bft) 97,87 %
03.01.2019 07:14 2,4 C 1,7 C 1,1 C 96 % 1036,0 hPa 0,0 l/m 0 min 0 min 0 W/m 0,0 km/h (0 Bft) 95,65 %
03.01.2019 07:16 2,4 C 1,7 C 1,1 C 96 % 1036,1 hPa 0,0 l/m 0 min 0 min 0 W/m 0,0 km/h (0 Bft) 97,87 %
03.01.2019 07:18 2,4 C 1,7 C 1,1 C 96 % 1036,1 hPa 0,0 l/m 0 min 0 min 0 W/m 0,0 km/h (0 Bft) 100,00 %
03.01.2019 07:20 2,4 C 1,7 C 1,1 C 96 % 1036,2 hPa 0,0 l/m 0 min 0 min 0 W/m 0,0 km/h (0 Bft) 100,00 %
03.01.2019 07:22 2,4 C 1,7 C 1,1 C 96 % 1036,2 hPa 0,0 l/m 0 min 0 min 0 W/m 0,0 km/h (0 Bft) 100,00 %
03.01.2019 07:24 2,4 C 1,7 C 1,1 C 96 % 1036,2 hPa 0,0 l/m 0 min 0 min 0 W/m 9,7 km/h (2 Bft) 100,00 %
03.01.2019 07:26 2,4 C 1,7 C 1,1 C 96 % 1036,2 hPa 0,0 l/m 0 min 0 min 0 W/m 3,2 km/h (1 Bft) 100,00 %
03.01.2019 07:28 2,4 C 1,7 C 1,1 C 96 % 1036,2 hPa 0,0 l/m 0 min 0 min 0 W/m 6,4 km/h (2 Bft) 100,00 %
03.01.2019 07:30 2,4 C 1,7 C 1,1 C 96 % 1036,2 hPa 0,0 l/m 0 min 0 min 0 W/m 6,4 km/h (2 Bft) 100,00 %
03.01.2019 07:32 2,4 C 1,7 C 1,1 C 96 % 1036,2 hPa 0,0 l/m 0 min 0 min 0 W/m 9,7 km/h (2 Bft) 97,87 %
03.01.2019 07:34 2,4 C 2,2 C 1,7 C 96 % 1036,2 hPa 0,0 l/m 0 min 0 min 0 W/m 6,4 km/h (2 Bft) 93,62 %
03.01.2019 07:36 2,4 C 2,2 C 1,7 C 96 % 1036,2 hPa 0,0 l/m 0 min 0 min 0 W/m 9,7 km/h (2 Bft) 93,62 %
03.01.2019 07:38 2,4 C 2,2 C 1,7 C 96 % 1036,2 hPa 0,0 l/m 0 min 0 min 0 W/m 3,2 km/h (1 Bft) 95,65 %
03.01.2019 07:40 2,4 C 2,2 C 1,7 C 96 % 1036,1 hPa 0,0 l/m 0 min 0 min 0 W/m 3,2 km/h (1 Bft) 97,87 %
03.01.2019 07:42 2,4 C 2,2 C 1,7 C 96 % 1036,1 hPa 0,0 l/m 0 min 0 min 0 W/m 0,0 km/h (0 Bft) 95,74 %
03.01.2019 07:44 2,4 C 2,2 C 1,7 C 96 % 1036,1 hPa 0,0 l/m 0 min 0 min 0 W/m 6,4 km/h (2 Bft) 97,87 %
03.01.2019 07:46 2,4 C 2,2 C 1,7 C 96 % 1036,1 hPa 0,0 l/m 0 min 0 min 0 W/m 3,2 km/h (1 Bft) 95,74 %
03.01.2019 07:48 2,4 C 2,2 C 1,7 C 96 % 1036,2 hPa 0,0 l/m 0 min 0 min 0 W/m 3,2 km/h (1 Bft) 97,87 %
03.01.2019 07:50 2,4 C 2,2 C 1,7 C 96 % 1036,1 hPa 0,0 l/m 0 min 0 min 0 W/m 0,0 km/h (0 Bft) 97,83 %
03.01.2019 07:52 2,4 C 2,2 C 1,7 C 96 % 1036,1 hPa 0,0 l/m 0 min 0 min 0 W/m 6,4 km/h (2 Bft) 97,87 %
03.01.2019 07:54 2,4 C 2,2 C 1,7 C 96 % 1036,2 hPa 0,0 l/m 0 min 0 min 0 W/m 6,4 km/h (2 Bft) 97,87 %
03.01.2019 07:56 2,4 C 2,2 C 1,7 C 96 % 1036,2 hPa 0,0 l/m 0 min 0 min 0 W/m 3,2 km/h (1 Bft) 97,87 %
03.01.2019 07:58 2,4 C 2,2 C 1,7 C 96 % 1036,2 hPa 0,0 l/m 0 min 0 min 0 W/m 3,2 km/h (1 Bft) 97,87 %
03.01.2019 08:00 2,4 C 2,2 C 1,7 C 96 % 1036,2 hPa 0,0 l/m 0 min 0 min 0 W/m 3,2 km/h (1 Bft) 97,87 %
03.01.2019 08:02 2,4 C 2,2 C 1,7 C 96 % 1036,2 hPa 0,0 l/m 0 min 0 min 0 W/m 3,2 km/h (1 Bft) 95,65 %
03.01.2019 08:04 2,4 C 2,2 C 1,7 C 96 % 1036,2 hPa 0,0 l/m 0 min 0 min 0 W/m 6,4 km/h (2 Bft) 93,62 %
03.01.2019 08:06 2,5 C 2,2 C 1,7 C 96 % 1036,3 hPa 0,0 l/m 0 min 0 min 0 W/m 6,4 km/h (2 Bft) 97,87 %
03.01.2019 08:08 2,5 C 2,2 C 1,7 C 96 % 1036,3 hPa 0,0 l/m 0 min 0 min 0 W/m 6,4 km/h (2 Bft) 97,92 %
03.01.2019 08:10 2,5 C 2,2 C 1,7 C 96 % 1036,3 hPa 0,0 l/m 0 min 2 min 0 W/m 6,4 km/h (2 Bft) 97,87 %
03.01.2019 08:12 2,5 C 2,2 C 1,7 C 96 % 1036,3 hPa 0,0 l/m 0 min 2 min 0 W/m 0,0 km/h (0 Bft) 95,65 %
03.01.2019 08:14 2,5 C 2,2 C 1,7 C 96 % 1036,3 hPa 0,0 l/m 0 min 2 min 0 W/m 0,0 km/h (0 Bft) 95,74 %
03.01.2019 08:16 2,5 C 2,2 C 1,7 C 96 % 1036,3 hPa 0,0 l/m 0 min 0 min 0 W/m 6,4 km/h (2 Bft) 97,87 %
03.01.2019 08:18 2,6 C 2,2 C 1,7 C 96 % 1036,3 hPa 0,0 l/m 0 min 0 min 0 W/m 6,4 km/h (2 Bft) 97,87 %
03.01.2019 08:20 2,6 C 2,2 C 1,7 C 96 % 1036,3 hPa 0,0 l/m 0 min 0 min 0 W/m 3,2 km/h (1 Bft) 97,87 %
03.01.2019 08:22 2,6 C 2,2 C 1,7 C 96 % 1036,3 hPa 0,0 l/m 0 min 0 min 0 W/m 6,4 km/h (2 Bft) 97,87 %
03.01.2019 08:24 2,6 C 2,2 C 1,7 C 96 % 1036,4 hPa 0,0 l/m 0 min 2 min 0 W/m 6,4 km/h (2 Bft) 97,83 %
03.01.2019 08:26 2,6 C 2,2 C 1,7 C 96 % 1036,3 hPa 0,0 l/m 0 min 2 min 0 W/m 3,2 km/h (1 Bft) 97,87 %
03.01.2019 08:28 2,6 C 2,2 C 1,7 C 96 % 1036,4 hPa 0,0 l/m 0 min 2 min 0 W/m 3,2 km/h (1 Bft) 93,62 %
03.01.2019 08:30 2,6 C 2,2 C 1,7 C 96 % 1036,3 hPa 0,0 l/m 0 min 2 min 0 W/m 3,2 km/h (1 Bft) 91,49 %
03.01.2019 08:32 2,6 C 1,7 C 1,7 C 96 % 1036,4 hPa 0,0 l/m 0 min 2 min 0 W/m 9,7 km/h (2 Bft) 95,74 %
03.01.2019 08:34 2,6 C 1,7 C 1,7 C 96 % 1036,5 hPa 0,0 l/m 0 min 2 min 0 W/m 6,4 km/h (2 Bft) 97,87 %
03.01.2019 08:36 2,6 C 1,7 C 1,7 C 96 % 1036,5 hPa 0,0 l/m 0 min 0 min 0 W/m 3,2 km/h (1 Bft) 93,48 %
03.01.2019 08:38 2,6 C 1,7 C 1,7 C 96 % 1036,5 hPa 0,0 l/m 0 min 0 min 0 W/m 6,4 km/h (2 Bft) 97,87 %
03.01.2019 08:40 2,6 C 1,7 C 1,7 C 96 % 1036,4 hPa 0,0 l/m 0 min 0 min 0 W/m 3,2 km/h (1 Bft) 97,87 %
03.01.2019 08:42 2,6 C 1,7 C 1,7 C 96 % 1036,5 hPa 0,0 l/m 0 min 0 min 0 W/m 3,2 km/h (1 Bft) 97,87 %
03.01.2019 08:44 2,6 C 1,7 C 1,7 C 96 % 1036,5 hPa 0,0 l/m 0 min 0 min 0 W/m 3,2 km/h (1 Bft) 97,87 %
03.01.2019 08:46 2,6 C 1,7 C 1,7 C 96 % 1036,5 hPa 0,0 l/m 0 min 0 min 0 W/m 0,0 km/h (0 Bft) 93,62 %
03.01.2019 08:48 2,6 C 1,7 C 1,7 C 96 % 1036,5 hPa 0,0 l/m 0 min 0 min 0 W/m 3,2 km/h (1 Bft) 95,65 %
03.01.2019 08:50 2,6 C 1,7 C 1,7 C 96 % 1036,6 hPa 0,0 l/m 0 min 0 min 2 W/m 3,2 km/h (1 Bft) 97,87 %
03.01.2019 08:52 2,6 C 1,7 C 1,7 C 96 % 1036,6 hPa 0,0 l/m 0 min 0 min 5 W/m 0,0 km/h (0 Bft) 97,87 %
03.01.2019 08:54 2,6 C 1,7 C 1,7 C 96 % 1036,6 hPa 0,0 l/m 0 min 0 min 5 W/m 0,0 km/h (0 Bft) 93,62 %
03.01.2019 08:56 2,6 C 1,7 C 1,7 C 96 % 1036,6 hPa 0,0 l/m 0 min 0 min 6 W/m 0,0 km/h (0 Bft) 93,62 %
03.01.2019 08:58 2,6 C 1,7 C 1,7 C 96 % 1036,5 hPa 0,0 l/m 0 min 0 min 8 W/m 0,0 km/h (0 Bft) 95,65 %
03.01.2019 09:00 2,6 C 1,7 C 1,7 C 96 % 1036,5 hPa 0,0 l/m 0 min 0 min 9 W/m 0,0 km/h (0 Bft) 97,87 %
03.01.2019 09:02 2,6 C 1,7 C 1,7 C 96 % 1036,6 hPa 0,0 l/m 0 min 0 min 11 W/m 0,0 km/h (0 Bft) 95,74 %
03.01.2019 09:04 2,6 C 1,7 C 1,7 C 96 % 1036,6 hPa 0,0 l/m 0 min 0 min 11 W/m 0,0 km/h (0 Bft) 95,74 %
03.01.2019 09:06 2,6 C 1,7 C 1,7 C 96 % 1036,6 hPa 0,0 l/m 0 min 0 min 11 W/m 0,0 km/h (0 Bft) 95,74 %
03.01.2019 09:08 2,6 C 1,7 C 1,7 C 96 % 1036,6 hPa 0,0 l/m 0 min 0 min 11 W/m 0,0 km/h (0 Bft) 95,74 %
03.01.2019 09:10 2,6 C 1,7 C 1,7 C 96 % 1036,6 hPa 0,0 l/m 0 min 0 min 12 W/m 0,0 km/h (0 Bft) 91,30 %
03.01.2019 09:12 2,6 C 1,7 C 1,7 C 96 % 1036,6 hPa 0,0 l/m 0 min 0 min 12 W/m 3,2 km/h (1 Bft) 93,62 %
03.01.2019 09:14 2,6 C 2,2 C 1,7 C 96 % 1036,6 hPa 0,0 l/m 0 min 0 min 14 W/m 0,0 km/h (0 Bft) 97,87 %
03.01.2019 09:16 2,6 C 2,2 C 1,7 C 96 % 1036,6 hPa 0,0 l/m 0 min 0 min 16 W/m 0,0 km/h (0 Bft) 95,74 %
03.01.2019 09:18 2,6 C 2,2 C 1,7 C 96 % 1036,6 hPa 0,0 l/m 0 min 0 min 19 W/m 0,0 km/h (0 Bft) 97,87 %
03.01.2019 09:20 2,6 C 2,2 C 1,7 C 96 % 1036,6 hPa 0,0 l/m 0 min 0 min 19 W/m 0,0 km/h (0 Bft) 97,87 %
03.01.2019 09:22 2,6 C 2,2 C 1,7 C 96 % 1036,6 hPa 0,0 l/m 0 min 0 min 19 W/m 3,2 km/h (1 Bft) 93,48 %
03.01.2019 09:24 2,6 C 2,2 C 1,7 C 96 % 1036,9 hPa 0,0 l/m 0 min 0 min 18 W/m 0,0 km/h (0 Bft) 97,87 %
03.01.2019 09:26 2,6 C 2,2 C 1,7 C 96 % 1036,8 hPa 0,0 l/m 0 min 0 min 18 W/m 0,0 km/h (0 Bft) 95,74 %
03.01.2019 09:28 2,6 C 2,2 C 1,7 C 96 % 1036,8 hPa 0,0 l/m 0 min 0 min 18 W/m 0,0 km/h (0 Bft) 95,74 %
03.01.2019 09:30 2,7 C 2,2 C 1,7 C 96 % 1036,8 hPa 0,0 l/m 0 min 0 min 19 W/m 3,2 km/h (1 Bft) 97,87 %
03.01.2019 09:32 2,7 C 2,2 C 1,7 C 96 % 1036,8 hPa 0,0 l/m 0 min 0 min 21 W/m 3,2 km/h (1 Bft) 97,87 %
03.01.2019 09:34 2,6 C 2,2 C 1,7 C 96 % 1036,8 hPa 0,0 l/m 0 min 0 min 25 W/m 3,2 km/h (1 Bft) 97,83 %
03.01.2019 09:36 2,7 C 2,2 C 1,7 C 96 % 1036,8 hPa 0,0 l/m 0 min 0 min 26 W/m 6,4 km/h (2 Bft) 97,87 %
03.01.2019 09:38 2,7 C 2,2 C 1,7 C 96 % 1036,8 hPa 0,0 l/m 0 min 0 min 27 W/m 3,2 km/h (1 Bft) 97,87 %
03.01.2019 09:40 2,7 C 2,2 C 1,7 C 96 % 1036,8 hPa 0,0 l/m 0 min 0 min 29 W/m 6,4 km/h (2 Bft) 97,87 %
03.01.2019 09:42 2,7 C 2,2 C 1,7 C 96 % 1036,8 hPa 0,0 l/m 0 min 0 min 31 W/m 3,2 km/h (1 Bft) 95,74 %
03.01.2019 09:44 2,7 C 2,2 C 1,7 C 96 % 1036,8 hPa 0,0 l/m 0 min 0 min 32 W/m 6,4 km/h (2 Bft) 97,87 %
03.01.2019 09:46 2,7 C 2,2 C 1,7 C 96 % 1036,9 hPa 0,0 l/m 0 min 0 min 33 W/m 0,0 km/h (0 Bft) 97,83 %
03.01.2019 09:48 2,7 C 2,2 C 1,7 C 96 % 1036,9 hPa 0,0 l/m 0 min 0 min 35 W/m 0,0 km/h (0 Bft) 97,87 %
03.01.2019 09:50 2,7 C 2,2 C 1,7 C 96 % 1036,8 hPa 0,0 l/m 0 min 0 min 37 W/m 0,0 km/h (0 Bft) 100,00 %
03.01.2019 09:52 2,7 C 2,2 C 1,7 C 96 % 1036,8 hPa 0,0 l/m 0 min 0 min 39 W/m 0,0 km/h (0 Bft) 100,00 %
03.01.2019 09:54 2,7 C 2,8 C 1,7 C 96 % 1036,8 hPa 0,0 l/m 0 min 0 min 39 W/m 0,0 km/h (0 Bft) 95,74 %
03.01.2019 09:56 2,8 C 2,8 C 1,7 C 96 % 1036,8 hPa 0,0 l/m 0 min 0 min 39 W/m 0,0 km/h (0 Bft) 100,00 %
03.01.2019 09:58 2,8 C 2,8 C 2,2 C 96 % 1036,9 hPa 0,0 l/m 0 min 0 min 39 W/m 0,0 km/h (0 Bft) 100,00 %
03.01.2019 10:00 2,8 C 2,8 C 2,2 C 97 % 1036,8 hPa 0,0 l/m 0 min 0 min 39 W/m 0,0 km/h (0 Bft) 97,87 %
03.01.2019 10:02 2,8 C 2,8 C 2,2 C 97 % 1036,9 hPa 0,0 l/m 0 min 0 min 43 W/m 0,0 km/h (0 Bft) 100,00 %
03.01.2019 10:04 2,8 C 2,8 C 2,2 C 97 % 1036,9 hPa 0,0 l/m 0 min 0 min 42 W/m 0,0 km/h (0 Bft) 100,00 %
03.01.2019 10:06 2,9 C 2,8 C 2,2 C 97 % 1036,9 hPa 0,0 l/m 0 min 0 min 39 W/m 0,0 km/h (0 Bft) 100,00 %
03.01.2019 10:08 2,9 C 2,8 C 2,2 C 97 % 1037,0 hPa 0,0 l/m 0 min 0 min 37 W/m 6,4 km/h (2 Bft) 100,00 %
03.01.2019 10:10 2,9 C 2,8 C 2,2 C 96 % 1037,0 hPa 0,0 l/m 0 min 0 min 37 W/m 9,7 km/h (2 Bft) 100,00 %
03.01.2019 10:12 2,9 C 2,8 C 2,2 C 96 % 1037,1 hPa 0,0 l/m 0 min 0 min 40 W/m 6,4 km/h (2 Bft) 97,87 %
03.01.2019 10:14 2,9 C 2,8 C 2,2 C 96 % 1037,0 hPa 0,0 l/m 0 min 0 min 45 W/m 6,4 km/h (2 Bft) 100,00 %
03.01.2019 10:16 2,9 C 2,8 C 2,2 C 96 % 1037,0 hPa 0,0 l/m 0 min 0 min 48 W/m 3,2 km/h (1 Bft) 100,00 %
03.01.2019 10:18 3,0 C 2,8 C 2,2 C 97 % 1037,0 hPa 0,0 l/m 0 min 0 min 49 W/m 6,4 km/h (2 Bft) 97,87 %
03.01.2019 10:20 3,0 C 2,8 C 2,2 C 97 % 1036,9 hPa 0,0 l/m 0 min 0 min 48 W/m 9,7 km/h (2 Bft) 100,00 %
03.01.2019 10:22 3,0 C 2,8 C 2,2 C 97 % 1037,0 hPa 0,0 l/m 0 min 0 min 46 W/m 9,7 km/h (2 Bft) 100,00 %
03.01.2019 10:24 3,1 C 2,8 C 2,2 C 97 % 1037,0 hPa 0,0 l/m 0 min 0 min 47 W/m 9,7 km/h (2 Bft) 100,00 %
03.01.2019 10:26 3,1 C 2,8 C 2,2 C 97 % 1037,0 hPa 0,0 l/m 0 min 0 min 54 W/m 6,4 km/h (2 Bft) 95,74 %
03.01.2019 10:28 3,1 C 2,8 C 2,2 C 97 % 1036,9 hPa 0,0 l/m 0 min 0 min 62 W/m 9,7 km/h (2 Bft) 100,00 %
03.01.2019 10:30 3,1 C 3,3 C 2,2 C 97 % 1037,0 hPa 0,0 l/m 0 min 0 min 57 W/m 6,4 km/h (2 Bft) 97,87 %
03.01.2019 10:32 3,1 C 3,3 C 2,2 C 97 % 1037,1 hPa 0,0 l/m 0 min 0 min 49 W/m 9,7 km/h (2 Bft) 100,00 %
03.01.2019 10:34 3,1 C 3,3 C 2,2 C 97 % 1037,0 hPa 0,0 l/m 0 min 0 min 42 W/m 9,7 km/h (2 Bft) 100,00 %
03.01.2019 10:36 3,2 C 3,3 C 2,2 C 97 % 1037,1 hPa 0,0 l/m 0 min 0 min 45 W/m 9,7 km/h (2 Bft) 100,00 %
03.01.2019 10:38 3,2 C 3,3 C 2,2 C 97 % 1037,1 hPa 0,0 l/m 0 min 0 min 53 W/m 9,7 km/h (2 Bft) 100,00 %
03.01.2019 10:40 3,2 C 3,3 C 2,2 C 97 % 1037,1 hPa 0,0 l/m 0 min 0 min 56 W/m 12,9 km/h (3 Bft) 100,00 %
03.01.2019 10:42 3,2 C 3,3 C 2,8 C 97 % 1037,1 hPa 0,0 l/m 0 min 0 min 61 W/m 3,2 km/h (1 Bft) 100,00 %
03.01.2019 10:44 3,2 C 3,3 C 2,8 C 97 % 1037,1 hPa 0,0 l/m 0 min 0 min 63 W/m 6,4 km/h (2 Bft) 100,00 %
03.01.2019 10:46 3,2 C 3,3 C 2,8 C 97 % 1037,0 hPa 0,0 l/m 0 min 0 min 63 W/m 9,7 km/h (2 Bft) 97,87 %
03.01.2019 10:48 3,3 C 3,3 C 2,8 C 97 % 1037,1 hPa 0,0 l/m 0 min 0 min 63 W/m 9,7 km/h (2 Bft) 100,00 %
03.01.2019 10:50 3,3 C 3,3 C 2,8 C 97 % 1037,1 hPa 0,0 l/m 0 min 0 min 65 W/m 6,4 km/h (2 Bft) 100,00 %
03.01.2019 10:52 3,3 C 3,3 C 2,8 C 97 % 1037,1 hPa 0,0 l/m 0 min 0 min 61 W/m 6,4 km/h (2 Bft) 100,00 %
03.01.2019 10:54 3,3 C 3,3 C 2,8 C 97 % 1037,1 hPa 0,0 l/m 0 min 0 min 63 W/m 12,9 km/h (3 Bft) 97,87 %
03.01.2019 10:56 3,3 C 3,3 C 2,8 C 97 % 1037,0 hPa 0,0 l/m 0 min 0 min 68 W/m 16,1 km/h (3 Bft) 97,83 %
03.01.2019 10:58 3,4 C 3,3 C 2,8 C 97 % 1037,1 hPa 0,0 l/m 0 min 0 min 68 W/m 16,1 km/h (3 Bft) 100,00 %
03.01.2019 11:00 3,4 C 3,9 C 2,8 C 97 % 1037,0 hPa 0,0 l/m 0 min 0 min 70 W/m 9,7 km/h (2 Bft) 100,00 %
03.01.2019 11:02 3,4 C 3,9 C 2,8 C 97 % 1037,1 hPa 0,0 l/m 0 min 0 min 77 W/m 12,9 km/h (3 Bft) 100,00 %
03.01.2019 11:04 3,4 C 3,9 C 2,8 C 97 % 1037,1 hPa 0,0 l/m 0 min 0 min 78 W/m 9,7 km/h (2 Bft) 93,62 %
03.01.2019 11:06 3,5 C 3,9 C 2,8 C 97 % 1037,0 hPa 0,0 l/m 0 min 0 min 73 W/m 16,1 km/h (3 Bft) 93,62 %
03.01.2019 11:08 3,5 C 3,9 C 2,8 C 97 % 1037,0 hPa 0,0 l/m 0 min 0 min 71 W/m 9,7 km/h (2 Bft) 95,65 %
03.01.2019 11:10 3,5 C 3,9 C 2,8 C 97 % 1037,0 hPa 0,0 l/m 0 min 0 min 73 W/m 12,9 km/h (3 Bft) 93,62 %
03.01.2019 11:12 3,6 C 3,9 C 2,8 C 97 % 1037,0 hPa 0,0 l/m 0 min 0 min 80 W/m 9,7 km/h (2 Bft) 91,49 %
03.01.2019 11:14 3,6 C 3,9 C 2,8 C 97 % 1037,0 hPa 0,0 l/m 0 min 0 min 81 W/m 6,4 km/h (2 Bft) 95,74 %
03.01.2019 11:16 3,6 C 3,9 C 3,3 C 97 % 1037,0 hPa 0,0 l/m 0 min 0 min 80 W/m 9,7 km/h (2 Bft) 95,74 %
03.01.2019 11:18 3,6 C 3,9 C 3,3 C 97 % 1037,0 hPa 0,0 l/m 0 min 0 min 79 W/m 12,9 km/h (3 Bft) 93,48 %
03.01.2019 11:20 3,7 C 3,9 C 3,3 C 97 % 1037,0 hPa 0,0 l/m 0 min 0 min 75 W/m 12,9 km/h (3 Bft) 95,74 %
03.01.2019 11:22 3,7 C 3,9 C 3,3 C 97 % 1037,0 hPa 0,0 l/m 0 min 0 min 71 W/m 9,7 km/h (2 Bft) 95,74 %
03.01.2019 11:24 3,7 C 3,9 C 3,3 C 97 % 1037,0 hPa 0,0 l/m 0 min 0 min 70 W/m 9,7 km/h (2 Bft) 95,74 %
03.01.2019 11:26 3,7 C 3,9 C 3,3 C 97 % 1036,9 hPa 0,0 l/m 0 min 0 min 74 W/m 6,4 km/h (2 Bft) 93,62 %
03.01.2019 11:28 3,8 C 4,4 C 3,3 C 97 % 1036,9 hPa 0,0 l/m 0 min 0 min 82 W/m 9,7 km/h (2 Bft) 95,74 %
03.01.2019 11:30 3,8 C 4,4 C 3,3 C 97 % 1036,9 hPa 0,0 l/m 0 min 0 min 84 W/m 6,4 km/h (2 Bft) 93,48 %
03.01.2019 11:32 3,8 C 4,4 C 3,3 C 97 % 1036,9 hPa 0,0 l/m 0 min 0 min 89 W/m 9,7 km/h (2 Bft) 93,62 %
03.01.2019 11:34 3,9 C 4,4 C 3,3 C 97 % 1036,9 hPa 0,0 l/m 0 min 0 min 98 W/m 9,7 km/h (2 Bft) 93,62 %
03.01.2019 11:36 3,9 C 5,0 C 3,9 C 97 % 1036,8 hPa 0,0 l/m 0 min 0 min 109 W/m 12,9 km/h (3 Bft) 93,62 %
03.01.2019 11:38 3,9 C 5,0 C 3,9 C 97 % 1036,7 hPa 0,0 l/m 0 min 0 min 115 W/m 9,7 km/h (2 Bft) 95,74 %
03.01.2019 11:40 4,0 C 5,0 C 3,9 C 97 % 1036,8 hPa 0,0 l/m 0 min 0 min 114 W/m 9,7 km/h (2 Bft) 95,74 %
03.01.2019 11:42 4,1 C 5,0 C 3,9 C 97 % 1036,7 hPa 0,0 l/m 0 min 0 min 111 W/m 16,1 km/h (3 Bft) 97,83 %
03.01.2019 11:44 4,1 C 5,0 C 3,9 C 97 % 1036,8 hPa 0,2 l/m 0 min 0 min 108 W/m 12,9 km/h (3 Bft) 93,62 %
03.01.2019 11:46 4,2 C 5,6 C 3,9 C 97 % 1036,7 hPa 0,0 l/m 0 min 0 min 114 W/m 12,9 km/h (3 Bft) 91,49 %
03.01.2019 11:48 4,2 C 5,6 C 4,4 C 97 % 1036,7 hPa 0,0 l/m 0 min 0 min 115 W/m 12,9 km/h (3 Bft) 97,87 %
03.01.2019 11:50 4,2 C 5,6 C 4,4 C 97 % 1036,7 hPa 0,0 l/m 0 min 0 min 108 W/m 9,7 km/h (2 Bft) 97,87 %
03.01.2019 11:52 4,3 C 5,6 C 4,4 C 96 % 1036,8 hPa 0,0 l/m 0 min 0 min 93 W/m 12,9 km/h (3 Bft) 95,74 %
03.01.2019 11:54 4,3 C 5,0 C 3,9 C 96 % 1036,7 hPa 0,0 l/m 0 min 0 min 82 W/m 12,9 km/h (3 Bft) 93,48 %
03.01.2019 11:56 4,4 C 5,0 C 3,9 C 97 % 1036,6 hPa 0,0 l/m 0 min 0 min 86 W/m 9,7 km/h (2 Bft) 97,87 %
03.01.2019 11:58 4,4 C 5,0 C 3,9 C 97 % 1036,8 hPa 0,0 l/m 0 min 0 min 88 W/m 9,7 km/h (2 Bft) 95,74 %
03.01.2019 12:00 4,4 C 5,6 C 3,9 C 96 % 1036,7 hPa 0,0 l/m 0 min 0 min 103 W/m 9,7 km/h (2 Bft) 95,74 %
03.01.2019 12:02 4,5 C 5,6 C 4,4 C 96 % 1036,6 hPa 0,0 l/m 0 min 0 min 120 W/m 12,9 km/h (3 Bft) 93,62 %
03.01.2019 12:04 4,5 C 5,6 C 4,4 C 96 % 1036,6 hPa 0,0 l/m 0 min 0 min 107 W/m 9,7 km/h (2 Bft) 97,87 %
03.01.2019 12:08 4,6 C 5,6 C 3,9 C 96 % 1036,6 hPa 0,0 l/m 0 min 0 min 92 W/m 12,9 km/h (3 Bft) 96,81 %
03.01.2019 12:10 4,6 C 5,0 C 3,9 C 96 % 1036,5 hPa 0,0 l/m 0 min 0 min 76 W/m 12,9 km/h (3 Bft) 97,87 %
03.01.2019 12:12 4,6 C 5,0 C 3,9 C 96 % 1036,6 hPa 0,0 l/m 0 min 0 min 89 W/m 19,3 km/h (3 Bft) 97,87 %
03.01.2019 12:14 4,6 C 5,6 C 3,9 C 96 % 1036,6 hPa 0,0 l/m 0 min 0 min 110 W/m 6,4 km/h (2 Bft) 97,87 %
03.01.2019 12:16 4,6 C 5,6 C 4,4 C 96 % 1036,6 hPa 0,0 l/m 0 min 0 min 120 W/m 12,9 km/h (3 Bft) 97,83 %
03.01.2019 12:18 4,7 C 6,1 C 4,4 C 96 % 1036,5 hPa 0,0 l/m 0 min 0 min 121 W/m 9,7 km/h (2 Bft) 97,87 %
03.01.2019 12:20 4,7 C 6,7 C 4,4 C 96 % 1036,6 hPa 0,0 l/m 0 min 0 min 137 W/m 9,7 km/h (2 Bft) 98,00 %
03.01.2019 12:22 4,7 C 6,7 C 4,4 C 95 % 1036,6 hPa 0,0 l/m 0 min 0 min 153 W/m 12,9 km/h (3 Bft) 95,74 %
03.01.2019 12:24 4,8 C 6,7 C 4,4 C 95 % 1036,6 hPa 0,0 l/m 2 min 0 min 180 W/m 12,9 km/h (3 Bft) 97,87 %
03.01.2019 12:26 4,8 C 7,8 C 5,6 C 95 % 1036,5 hPa 0,0 l/m 2 min 0 min 223 W/m 16,1 km/h (3 Bft) 97,83 %
03.01.2019 12:28 4,9 C 7,8 C 5,6 C 95 % 1036,4 hPa 0,0 l/m 2 min 0 min 180 W/m 16,1 km/h (3 Bft) 95,74 %
03.01.2019 12:30 4,9 C 7,2 C 5,6 C 95 % 1036,4 hPa 0,0 l/m 2 min 0 min 159 W/m 16,1 km/h (3 Bft) 97,87 %
03.01.2019 12:32 5,0 C 7,2 C 5,0 C 95 % 1036,5 hPa 0,0 l/m 0 min 0 min 129 W/m 16,1 km/h (3 Bft) 95,74 %
03.01.2019 12:34 5,0 C 6,7 C 5,0 C 95 % 1036,5 hPa 0,0 l/m 0 min 0 min 108 W/m 12,9 km/h (3 Bft) 95,74 %
03.01.2019 12:36 5,0 C 6,1 C 5,0 C 95 % 1036,6 hPa 0,0 l/m 0 min 0 min 104 W/m 9,7 km/h (2 Bft) 97,83 %
03.01.2019 12:38 5,1 C 6,1 C 5,0 C 95 % 1036,5 hPa 0,0 l/m 0 min 0 min 103 W/m 12,9 km/h (3 Bft) 97,87 %
03.01.2019 12:40 5,1 C 6,1 C 4,4 C 95 % 1036,5 hPa 0,0 l/m 0 min 0 min 96 W/m 16,1 km/h (3 Bft) 97,87 %
03.01.2019 12:42 5,1 C 6,1 C 4,4 C 94 % 1036,5 hPa 0,0 l/m 0 min 0 min 109 W/m 16,1 km/h (3 Bft) 97,87 %
03.01.2019 12:44 5,1 C 6,1 C 5,0 C 94 % 1036,4 hPa 0,0 l/m 0 min 0 min 132 W/m 9,7 km/h (2 Bft) 93,62 %
03.01.2019 12:46 5,1 C 6,1 C 5,0 C 94 % 1036,4 hPa 0,0 l/m 0 min 0 min 135 W/m 19,3 km/h (3 Bft) 95,74 %
03.01.2019 12:48 5,1 C 6,1 C 5,0 C 94 % 1036,4 hPa 0,0 l/m 0 min 0 min 121 W/m 22,5 km/h (4 Bft) 97,83 %
03.01.2019 12:50 5,1 C 5,6 C 5,0 C 94 % 1036,3 hPa 0,0 l/m 0 min 0 min 108 W/m 12,9 km/h (3 Bft) 97,87 %
03.01.2019 12:52 5,1 C 5,6 C 5,0 C 93 % 1036,3 hPa 0,0 l/m 0 min 0 min 96 W/m 19,3 km/h (3 Bft) 97,87 %
03.01.2019 12:54 5,1 C 5,6 C 4,4 C 93 % 1036,4 hPa 0,0 l/m 0 min 0 min 83 W/m 22,5 km/h (4 Bft) 97,87 %
03.01.2019 12:56 5,1 C 5,6 C 4,4 C 93 % 1036,3 hPa 0,0 l/m 0 min 0 min 83 W/m 12,9 km/h (3 Bft) 97,87 %
03.01.2019 12:58 5,1 C 5,6 C 4,4 C 93 % 1036,4 hPa 0,0 l/m 0 min 0 min 87 W/m 12,9 km/h (3 Bft) 97,87 %
03.01.2019 13:00 5,1 C 5,6 C 4,4 C 93 % 1036,4 hPa 0,0 l/m 0 min 0 min 102 W/m 12,9 km/h (3 Bft) 97,83 %
03.01.2019 13:02 5,1 C 5,6 C 4,4 C 92 % 1036,4 hPa 0,0 l/m 0 min 0 min 104 W/m 12,9 km/h (3 Bft) 100,00 %
03.01.2019 13:04 5,1 C 5,6 C 4,4 C 92 % 1036,4 hPa 0,0 l/m 0 min 0 min 96 W/m 19,3 km/h (3 Bft) 100,00 %
03.01.2019 13:06 5,1 C 5,6 C 4,4 C 92 % 1036,3 hPa 0,0 l/m 0 min 0 min 80 W/m 16,1 km/h (3 Bft) 100,00 %
03.01.2019 13:08 5,1 C 5,0 C 4,4 C 92 % 1036,3 hPa 0,0 l/m 0 min 0 min 77 W/m 12,9 km/h (3 Bft) 97,87 %
03.01.2019 13:10 5,1 C 5,0 C 4,4 C 92 % 1036,3 hPa 0,0 l/m 0 min 0 min 90 W/m 19,3 km/h (3 Bft) 95,74 %
03.01.2019 13:12 5,1 C 5,6 C 4,4 C 92 % 1036,2 hPa 0,0 l/m 0 min 0 min 100 W/m 9,7 km/h (2 Bft) 100,00 %
03.01.2019 13:14 5,1 C 5,6 C 5,0 C 91 % 1036,3 hPa 0,0 l/m 0 min 0 min 101 W/m 19,3 km/h (3 Bft) 100,00 %
03.01.2019 13:16 5,1 C 5,6 C 4,4 C 91 % 1036,3 hPa 0,0 l/m 0 min 0 min 95 W/m 19,3 km/h (3 Bft) 100,00 %
03.01.2019 13:18 5,1 C 5,6 C 4,4 C 91 % 1036,4 hPa 0,0 l/m 0 min 0 min 100 W/m 22,5 km/h (4 Bft) 100,00 %
03.01.2019 13:20 5,1 C 5,6 C 5,0 C 91 % 1036,3 hPa 0,0 l/m 0 min 0 min 104 W/m 22,5 km/h (4 Bft) 97,87 %
03.01.2019 13:22 5,1 C 5,6 C 5,0 C 91 % 1036,3 hPa 0,0 l/m 0 min 0 min 96 W/m 12,9 km/h (3 Bft) 100,00 %
03.01.2019 13:24 5,1 C 5,6 C 5,0 C 91 % 1036,3 hPa 0,0 l/m 0 min 0 min 93 W/m 16,1 km/h (3 Bft) 100,00 %
03.01.2019 13:26 5,1 C 5,6 C 5,0 C 91 % 1036,3 hPa 0,0 l/m 0 min 0 min 100 W/m 12,9 km/h (3 Bft) 100,00 %
03.01.2019 13:28 5,1 C 5,6 C 5,0 C 91 % 1036,2 hPa 0,0 l/m 0 min 0 min 105 W/m 12,9 km/h (3 Bft) 100,00 %
03.01.2019 13:30 5,2 C 5,6 C 5,0 C 91 % 1036,2 hPa 0,0 l/m 0 min 0 min 107 W/m 12,9 km/h (3 Bft) 95,74 %
03.01.2019 13:32 5,2 C 5,6 C 5,0 C 90 % 1036,2 hPa 0,0 l/m 0 min 0 min 96 W/m 6,4 km/h (2 Bft) 97,87 %
03.01.2019 13:34 5,2 C 5,6 C 4,4 C 90 % 1036,3 hPa 0,0 l/m 0 min 0 min 83 W/m 19,3 km/h (3 Bft) 97,87 %
03.01.2019 13:36 5,2 C 5,6 C 4,4 C 90 % 1036,2 hPa 0,0 l/m 0 min 0 min 83 W/m 16,1 km/h (3 Bft) 97,83 %
03.01.2019 13:38 5,2 C 5,6 C 4,4 C 90 % 1036,2 hPa 0,0 l/m 0 min 0 min 85 W/m 12,9 km/h (3 Bft) 97,87 %
03.01.2019 13:40 5,2 C 5,6 C 4,4 C 90 % 1036,2 hPa 0,0 l/m 0 min 0 min 103 W/m 16,1 km/h (3 Bft) 97,87 %
03.01.2019 13:42 5,2 C 5,6 C 5,0 C 90 % 1036,2 hPa 0,0 l/m 0 min 0 min 120 W/m 22,5 km/h (4 Bft) 97,87 %
03.01.2019 13:44 5,2 C 5,6 C 5,0 C 90 % 1036,2 hPa 0,0 l/m 0 min 0 min 109 W/m 16,1 km/h (3 Bft) 97,87 %
03.01.2019 13:46 5,2 C 5,6 C 5,0 C 90 % 1036,2 hPa 0,0 l/m 0 min 0 min 87 W/m 12,9 km/h (3 Bft) 97,83 %
03.01.2019 13:48 5,2 C 5,6 C 5,0 C 90 % 1036,3 hPa 0,0 l/m 0 min 0 min 84 W/m 16,1 km/h (3 Bft) 97,87 %
03.01.2019 13:50 5,2 C 5,6 C 5,0 C 89 % 1036,3 hPa 0,0 l/m 0 min 0 min 85 W/m 19,3 km/h (3 Bft) 97,87 %
03.01.2019 13:52 5,2 C 5,6 C 4,4 C 89 % 1036,3 hPa 0,0 l/m 0 min 0 min 79 W/m 16,1 km/h (3 Bft) 95,74 %
03.01.2019 13:54 5,2 C 5,6 C 4,4 C 89 % 1036,4 hPa 0,0 l/m 0 min 0 min 70 W/m 12,9 km/h (3 Bft) 97,87 %
03.01.2019 13:56 5,2 C 5,6 C 4,4 C 89 % 1036,2 hPa 0,0 l/m 0 min 0 min 70 W/m 16,1 km/h (3 Bft) 97,87 %
03.01.2019 13:58 5,2 C 5,0 C 4,4 C 89 % 1036,3 hPa 0,0 l/m 0 min 0 min 74 W/m 19,3 km/h (3 Bft) 97,83 %
03.01.2019 14:00 5,2 C 5,0 C 4,4 C 89 % 1036,3 hPa 0,0 l/m 0 min 0 min 70 W/m 12,9 km/h (3 Bft) 97,87 %
03.01.2019 14:02 5,2 C 5,0 C 4,4 C 89 % 1036,2 hPa 0,0 l/m 0 min 0 min 67 W/m 16,1 km/h (3 Bft) 91,49 %
03.01.2019 14:04 5,2 C 5,0 C 4,4 C 89 % 1036,2 hPa 0,0 l/m 0 min 0 min 63 W/m 22,5 km/h (4 Bft) 93,62 %
03.01.2019 14:06 5,2 C 5,0 C 4,4 C 88 % 1036,1 hPa 0,0 l/m 0 min 0 min 63 W/m 22,5 km/h (4 Bft) 93,62 %
03.01.2019 14:08 5,2 C 5,0 C 4,4 C 88 % 1036,1 hPa 0,0 l/m 0 min 0 min 55 W/m 12,9 km/h (3 Bft) 93,62 %
03.01.2019 14:10 5,2 C 5,0 C 4,4 C 88 % 1036,1 hPa 0,0 l/m 0 min 0 min 51 W/m 9,7 km/h (2 Bft) 95,65 %
03.01.2019 14:12 5,2 C 5,0 C 4,4 C 88 % 1036,0 hPa 0,0 l/m 0 min 0 min 55 W/m 12,9 km/h (3 Bft) 97,87 %
03.01.2019 14:14 5,2 C 5,0 C 4,4 C 88 % 1036,0 hPa 0,0 l/m 0 min 0 min 61 W/m 12,9 km/h (3 Bft) 97,87 %
03.01.2019 14:16 5,2 C 5,0 C 4,4 C 88 % 1036,0 hPa 0,0 l/m 0 min 0 min 64 W/m 9,7 km/h (2 Bft) 97,87 %
03.01.2019 14:18 5,2 C 5,0 C 4,4 C 88 % 1036,1 hPa 0,0 l/m 0 min 0 min 62 W/m 12,9 km/h (3 Bft) 95,74 %
03.01.2019 14:20 5,2 C 5,0 C 4,4 C 88 % 1036,0 hPa 0,0 l/m 0 min 0 min 61 W/m 9,7 km/h (2 Bft) 97,87 %
03.01.2019 14:22 5,2 C 5,0 C 4,4 C 89 % 1036,1 hPa 0,0 l/m 0 min 0 min 69 W/m 9,7 km/h (2 Bft) 97,83 %
03.01.2019 14:24 5,2 C 5,0 C 4,4 C 89 % 1036,1 hPa 0,0 l/m 0 min 0 min 71 W/m 12,9 km/h (3 Bft) 95,74 %
03.01.2019 14:26 5,2 C 5,0 C 4,4 C 89 % 1036,2 hPa 0,0 l/m 0 min 0 min 70 W/m 9,7 km/h (2 Bft) 95,74 %
03.01.2019 14:28 5,3 C 5,0 C 4,4 C 89 % 1036,1 hPa 0,0 l/m 0 min 0 min 70 W/m 9,7 km/h (2 Bft) 97,87 %
03.01.2019 14:30 5,2 C 5,0 C 4,4 C 89 % 1036,2 hPa 0,0 l/m 0 min 0 min 68 W/m 16,1 km/h (3 Bft) 95,74 %
03.01.2019 14:32 5,3 C 5,6 C 4,4 C 89 % 1036,2 hPa 0,0 l/m 0 min 0 min 62 W/m 9,7 km/h (2 Bft) 97,87 %
03.01.2019 14:34 5,3 C 5,6 C 4,4 C 89 % 1036,2 hPa 0,0 l/m 0 min 0 min 60 W/m 6,4 km/h (2 Bft) 93,48 %
03.01.2019 14:36 5,3 C 5,6 C 4,4 C 89 % 1036,3 hPa 0,0 l/m 0 min 0 min 58 W/m 12,9 km/h (3 Bft) 97,87 %
03.01.2019 14:38 5,3 C 5,6 C 4,4 C 89 % 1036,3 hPa 0,0 l/m 0 min 0 min 58 W/m 6,4 km/h (2 Bft) 97,87 %
03.01.2019 14:40 5,3 C 5,6 C 4,4 C 89 % 1036,4 hPa 0,0 l/m 0 min 0 min 58 W/m 12,9 km/h (3 Bft) 97,87 %
03.01.2019 14:42 5,3 C 5,6 C 4,4 C 89 % 1036,4 hPa 0,0 l/m 0 min 0 min 56 W/m 9,7 km/h (2 Bft) 97,87 %
03.01.2019 14:44 5,3 C 5,0 C 4,4 C 89 % 1036,3 hPa 0,0 l/m 0 min 0 min 54 W/m 12,9 km/h (3 Bft) 97,87 %
03.01.2019 14:46 5,3 C 5,0 C 4,4 C 89 % 1036,3 hPa 0,0 l/m 0 min 0 min 55 W/m 19,3 km/h (3 Bft) 97,83 %
03.01.2019 14:48 5,3 C 5,0 C 4,4 C 89 % 1036,3 hPa 0,0 l/m 0 min 0 min 50 W/m 19,3 km/h (3 Bft) 97,87 %
03.01.2019 14:50 5,3 C 5,0 C 4,4 C 89 % 1036,3 hPa 0,0 l/m 0 min 0 min 48 W/m 19,3 km/h (3 Bft) 97,87 %
03.01.2019 14:52 5,2 C 5,0 C 4,4 C 88 % 1036,2 hPa 0,0 l/m 0 min 0 min 55 W/m 16,1 km/h (3 Bft) 100,00 %
03.01.2019 14:54 5,2 C 5,0 C 4,4 C 88 % 1036,3 hPa 0,0 l/m 0 min 0 min 56 W/m 16,1 km/h (3 Bft) 97,87 %
03.01.2019 14:56 5,2 C 5,0 C 4,4 C 88 % 1036,3 hPa 0,0 l/m 0 min 0 min 52 W/m 16,1 km/h (3 Bft) 97,87 %
03.01.2019 14:58 5,2 C 5,0 C 4,4 C 88 % 1036,3 hPa 0,0 l/m 0 min 0 min 47 W/m 12,9 km/h (3 Bft) 100,00 %
03.01.2019 15:00 5,2 C 5,0 C 4,4 C 88 % 1036,3 hPa 0,0 l/m 0 min 0 min 48 W/m 16,1 km/h (3 Bft) 100,00 %
03.01.2019 15:02 5,2 C 5,0 C 4,4 C 88 % 1036,3 hPa 0,0 l/m 0 min 0 min 42 W/m 9,7 km/h (2 Bft) 100,00 %
03.01.2019 15:04 5,2 C 5,0 C 4,4 C 88 % 1036,2 hPa 0,0 l/m 0 min 0 min 38 W/m 16,1 km/h (3 Bft) 100,00 %
03.01.2019 15:06 5,2 C 5,0 C 4,4 C 88 % 1036,2 hPa 0,0 l/m 0 min 0 min 40 W/m 12,9 km/h (3 Bft) 95,74 %
03.01.2019 15:08 5,2 C 5,0 C 4,4 C 88 % 1036,2 hPa 0,0 l/m 0 min 0 min 43 W/m 12,9 km/h (3 Bft) 97,87 %
03.01.2019 15:10 5,2 C 5,0 C 4,4 C 88 % 1036,2 hPa 0,0 l/m 0 min 0 min 52 W/m 9,7 km/h (2 Bft) 97,83 %
03.01.2019 15:12 5,2 C 5,0 C 4,4 C 88 % 1036,2 hPa 0,0 l/m 0 min 0 min 56 W/m 12,9 km/h (3 Bft) 100,00 %
03.01.2019 15:14 5,2 C 5,0 C 4,4 C 88 % 1036,2 hPa 0,0 l/m 0 min 0 min 53 W/m 9,7 km/h (2 Bft) 100,00 %
03.01.2019 15:16 5,2 C 5,0 C 4,4 C 88 % 1036,2 hPa 0,0 l/m 0 min 0 min 47 W/m 16,1 km/h (3 Bft) 97,87 %
03.01.2019 15:18 5,2 C 5,0 C 4,4 C 88 % 1036,2 hPa 0,0 l/m 0 min 0 min 54 W/m 12,9 km/h (3 Bft) 95,74 %
03.01.2019 15:20 5,2 C 5,0 C 4,4 C 88 % 1036,2 hPa 0,0 l/m 0 min 0 min 62 W/m 9,7 km/h (2 Bft) 100,00 %
03.01.2019 15:22 5,2 C 5,0 C 4,4 C 88 % 1036,3 hPa 0,0 l/m 0 min 0 min 53 W/m 12,9 km/h (3 Bft) 100,00 %
03.01.2019 15:24 5,2 C 5,0 C 4,4 C 88 % 1036,3 hPa 0,0 l/m 0 min 0 min 41 W/m 12,9 km/h (3 Bft) 100,00 %
03.01.2019 15:26 5,2 C 5,0 C 4,4 C 88 % 1036,3 hPa 0,0 l/m 0 min 0 min 36 W/m 16,1 km/h (3 Bft) 95,74 %
03.01.2019 15:28 5,2 C 5,0 C 4,4 C 88 % 1036,3 hPa 0,0 l/m 0 min 0 min 32 W/m 19,3 km/h (3 Bft) 97,87 %
03.01.2019 15:30 5,2 C 5,0 C 4,4 C 88 % 1036,3 hPa 0,0 l/m 0 min 0 min 27 W/m 22,5 km/h (4 Bft) 97,87 %
03.01.2019 15:32 5,1 C 5,0 C 3,9 C 87 % 1036,3 hPa 0,0 l/m 0 min 0 min 26 W/m 19,3 km/h (3 Bft) 97,87 %
03.01.2019 15:34 5,1 C 5,0 C 3,9 C 87 % 1036,3 hPa 0,0 l/m 0 min 0 min 26 W/m 16,1 km/h (3 Bft) 95,74 %
03.01.2019 15:36 5,1 C 4,4 C 3,9 C 87 % 1036,3 hPa 0,0 l/m 0 min 0 min 26 W/m 16,1 km/h (3 Bft) 98,28 %
03.01.2019 15:38 5,1 C 4,4 C 3,9 C 87 % 1036,3 hPa 0,0 l/m 0 min 0 min 26 W/m 19,3 km/h (3 Bft) 97,14 %
03.01.2019 15:40 5,1 C 4,4 C 3,9 C 87 % 1036,3 hPa 0,0 l/m 0 min 0 min 28 W/m 12,9 km/h (3 Bft) 95,74 %
03.01.2019 15:42 5,1 C 4,4 C 3,9 C 87 % 1036,4 hPa 0,0 l/m 0 min 0 min 32 W/m 12,9 km/h (3 Bft) 97,87 %
03.01.2019 15:44 5,1 C 4,4 C 3,9 C 87 % 1036,4 hPa 0,0 l/m 0 min 0 min 28 W/m 9,7 km/h (2 Bft) 97,87 %
03.01.2019 15:46 5,1 C 4,4 C 3,9 C 87 % 1036,4 hPa 0,0 l/m 0 min 0 min 25 W/m 9,7 km/h (2 Bft) 97,87 %
03.01.2019 15:48 5,1 C 4,4 C 3,9 C 87 % 1036,4 hPa 0,0 l/m 0 min 0 min 23 W/m 9,7 km/h (2 Bft) 97,83 %
03.01.2019 15:50 5,1 C 4,4 C 3,9 C 87 % 1036,3 hPa 0,0 l/m 0 min 0 min 23 W/m 9,7 km/h (2 Bft) 100,00 %
03.01.2019 15:52 5,1 C 4,4 C 3,9 C 88 % 1036,2 hPa 0,0 l/m 0 min 0 min 22 W/m 12,9 km/h (3 Bft) 97,87 %
03.01.2019 15:54 5,1 C 4,4 C 3,9 C 88 % 1036,2 hPa 0,0 l/m 0 min 0 min 21 W/m 12,9 km/h (3 Bft) 97,87 %
03.01.2019 15:56 5,1 C 4,4 C 3,9 C 88 % 1036,1 hPa 0,0 l/m 0 min 0 min 22 W/m 9,7 km/h (2 Bft) 95,74 %
03.01.2019 15:58 5,1 C 4,4 C 3,9 C 88 % 1036,2 hPa 0,0 l/m 0 min 0 min 23 W/m 6,4 km/h (2 Bft) 95,65 %
03.01.2019 16:00 5,1 C 4,4 C 3,9 C 88 % 1036,2 hPa 0,0 l/m 0 min 0 min 21 W/m 9,7 km/h (2 Bft) 95,74 %
03.01.2019 16:02 5,0 C 4,4 C 3,9 C 88 % 1036,2 hPa 0,0 l/m 0 min 0 min 21 W/m 9,7 km/h (2 Bft) 95,74 %
03.01.2019 16:04 5,0 C 4,4 C 3,9 C 88 % 1036,3 hPa 0,0 l/m 0 min 0 min 18 W/m 9,7 km/h (2 Bft) 95,74 %
03.01.2019 16:06 5,0 C 4,4 C 3,9 C 88 % 1036,3 hPa 0,0 l/m 0 min 0 min 16 W/m 6,4 km/h (2 Bft) 94,83 %
03.01.2019 16:08 5,0 C 4,4 C 3,9 C 88 % 1036,3 hPa 0,0 l/m 0 min 0 min 15 W/m 12,9 km/h (3 Bft) 97,22 %
03.01.2019 16:10 5,0 C 4,4 C 3,9 C 88 % 1036,3 hPa 0,0 l/m 0 min 0 min 13 W/m 9,7 km/h (2 Bft) 95,65 %
03.01.2019 16:12 4,9 C 4,4 C 3,9 C 88 % 1036,2 hPa 0,0 l/m 0 min 0 min 12 W/m 9,7 km/h (2 Bft) 91,49 %
03.01.2019 16:14 4,9 C 4,4 C 3,9 C 88 % 1036,3 hPa 0,0 l/m 0 min 0 min 11 W/m 6,4 km/h (2 Bft) 97,87 %
03.01.2019 16:16 4,9 C 4,4 C 3,9 C 88 % 1036,3 hPa 0,0 l/m 0 min 0 min 9 W/m 9,7 km/h (2 Bft) 97,87 %
03.01.2019 16:18 4,9 C 4,4 C 3,9 C 88 % 1036,4 hPa 0,0 l/m 0 min 0 min 9 W/m 6,4 km/h (2 Bft) 97,87 %
03.01.2019 16:20 4,9 C 4,4 C 3,9 C 88 % 1036,4 hPa 0,0 l/m 0 min 0 min 9 W/m 6,4 km/h (2 Bft) 97,87 %
03.01.2019 16:22 4,9 C 4,4 C 3,9 C 88 % 1036,4 hPa 0,0 l/m 0 min 0 min 9 W/m 6,4 km/h (2 Bft) 95,65 %
03.01.2019 16:24 4,9 C 4,4 C 3,9 C 88 % 1036,4 hPa 0,0 l/m 0 min 2 min 9 W/m 9,7 km/h (2 Bft) 97,87 %
03.01.2019 16:26 4,9 C 3,9 C 3,3 C 89 % 1036,4 hPa 0,0 l/m 0 min 2 min 11 W/m 12,9 km/h (3 Bft) 97,87 %
03.01.2019 16:28 4,9 C 3,9 C 3,3 C 88 % 1036,4 hPa 0,0 l/m 0 min 0 min 12 W/m 6,4 km/h (2 Bft) 97,87 %
03.01.2019 16:30 4,9 C 3,9 C 3,3 C 89 % 1036,4 hPa 0,0 l/m 0 min 0 min 12 W/m 9,7 km/h (2 Bft) 97,87 %
03.01.2019 16:32 4,8 C 3,9 C 3,3 C 89 % 1036,4 hPa 0,0 l/m 0 min 0 min 10 W/m 9,7 km/h (2 Bft) 97,87 %
03.01.2019 16:34 4,8 C 3,9 C 3,3 C 89 % 1036,4 hPa 0,0 l/m 0 min 0 min 9 W/m 9,7 km/h (2 Bft) 95,65 %
03.01.2019 16:36 4,8 C 3,9 C 3,3 C 89 % 1036,4 hPa 0,0 l/m 0 min 0 min 7 W/m 6,4 km/h (2 Bft) 98,31 %
03.01.2019 16:38 4,8 C 3,9 C 3,3 C 89 % 1036,4 hPa 0,0 l/m 0 min 0 min 6 W/m 6,4 km/h (2 Bft) 94,29 %
03.01.2019 16:40 4,8 C 3,9 C 3,3 C 89 % 1036,4 hPa 0,0 l/m 0 min 0 min 5 W/m 6,4 km/h (2 Bft) 97,87 %
03.01.2019 16:42 4,8 C 3,9 C 3,3 C 89 % 1036,5 hPa 0,0 l/m 0 min 0 min 5 W/m 3,2 km/h (1 Bft) 97,87 %
03.01.2019 16:44 4,8 C 3,9 C 3,3 C 89 % 1036,5 hPa 0,0 l/m 0 min 0 min 5 W/m 9,7 km/h (2 Bft) 97,87 %
03.01.2019 16:46 4,8 C 3,9 C 3,3 C 89 % 1036,4 hPa 0,0 l/m 0 min 0 min 5 W/m 6,4 km/h (2 Bft) 97,83 %
03.01.2019 16:48 4,7 C 3,9 C 3,3 C 89 % 1036,5 hPa 0,0 l/m 0 min 0 min 2 W/m 6,4 km/h (2 Bft) 100,00 %
03.01.2019 16:50 4,7 C 3,9 C 3,3 C 90 % 1036,5 hPa 0,0 l/m 0 min 0 min 0 W/m 16,1 km/h (3 Bft) 95,74 %
03.01.2019 16:52 4,7 C 3,9 C 3,3 C 90 % 1036,5 hPa 0,0 l/m 0 min 0 min 0 W/m 16,1 km/h (3 Bft) 100,00 %
03.01.2019 16:54 4,7 C 3,9 C 3,3 C 89 % 1036,6 hPa 0,0 l/m 0 min 0 min 0 W/m 9,7 km/h (2 Bft) 100,00 %
03.01.2019 16:56 4,7 C 3,9 C 3,3 C 90 % 1036,5 hPa 0,0 l/m 0 min 0 min 0 W/m 6,4 km/h (2 Bft) 97,83 %
03.01.2019 16:58 4,7 C 3,9 C 3,3 C 90 % 1036,6 hPa 0,0 l/m 0 min 0 min 0 W/m 9,7 km/h (2 Bft) 100,00 %
03.01.2019 17:00 4,7 C 3,9 C 3,3 C 90 % 1036,6 hPa 0,0 l/m 0 min 0 min 0 W/m 9,7 km/h (2 Bft) 97,87 %
03.01.2019 17:02 4,7 C 3,9 C 3,3 C 90 % 1036,6 hPa 0,0 l/m 0 min 0 min 0 W/m 6,4 km/h (2 Bft) 97,87 %
03.01.2019 17:04 4,6 C 3,9 C 3,3 C 90 % 1036,5 hPa 0,0 l/m 0 min 0 min 0 W/m 9,7 km/h (2 Bft) 100,00 %
03.01.2019 17:06 4,6 C 3,9 C 3,3 C 90 % 1036,6 hPa 0,0 l/m 0 min 0 min 0 W/m 9,7 km/h (2 Bft) 100,00 %
03.01.2019 17:08 4,6 C 3,9 C 3,3 C 90 % 1036,6 hPa 0,0 l/m 0 min 0 min 0 W/m 9,7 km/h (2 Bft) 100,00 %
03.01.2019 17:10 4,6 C 3,9 C 3,3 C 90 % 1036,6 hPa 0,0 l/m 0 min 0 min 0 W/m 9,7 km/h (2 Bft) 100,00 %
03.01.2019 17:12 4,6 C 3,9 C 3,3 C 90 % 1036,6 hPa 0,0 l/m 0 min 0 min 0 W/m 9,7 km/h (2 Bft) 100,00 %
03.01.2019 17:14 4,6 C 3,9 C 3,3 C 90 % 1036,6 hPa 0,0 l/m 0 min 0 min 0 W/m 9,7 km/h (2 Bft) 100,00 %
03.01.2019 17:16 4,6 C 3,9 C 3,3 C 90 % 1036,7 hPa 0,0 l/m 0 min 0 min 0 W/m 9,7 km/h (2 Bft) 100,00 %
03.01.2019 17:18 4,6 C 3,9 C 3,3 C 90 % 1036,6 hPa 0,0 l/m 0 min 0 min 0 W/m 6,4 km/h (2 Bft) 100,00 %
03.01.2019 17:20 4,5 C 3,9 C 3,3 C 90 % 1036,6 hPa 0,0 l/m 0 min 0 min 0 W/m 9,7 km/h (2 Bft) 100,00 %
03.01.2019 17:22 4,5 C 3,9 C 3,3 C 90 % 1036,5 hPa 0,0 l/m 0 min 0 min 0 W/m 12,9 km/h (3 Bft) 100,00 %
03.01.2019 17:24 4,5 C 3,9 C 3,3 C 90 % 1036,6 hPa 0,0 l/m 0 min 0 min 0 W/m 12,9 km/h (3 Bft) 97,87 %
03.01.2019 17:26 4,5 C 3,9 C 3,3 C 90 % 1036,6 hPa 0,0 l/m 0 min 0 min 0 W/m 12,9 km/h (3 Bft) 95,74 %
03.01.2019 17:28 4,5 C 3,9 C 3,3 C 90 % 1036,6 hPa 0,0 l/m 0 min 0 min 0 W/m 6,4 km/h (2 Bft) 95,74 %
03.01.2019 17:30 4,4 C 3,9 C 3,3 C 90 % 1036,6 hPa 0,0 l/m 0 min 0 min 0 W/m 12,9 km/h (3 Bft) 97,87 %
03.01.2019 17:32 4,4 C 3,9 C 3,3 C 90 % 1036,6 hPa 0,0 l/m 0 min 0 min 0 W/m 9,7 km/h (2 Bft) 97,83 %
03.01.2019 17:34 4,4 C 3,9 C 3,3 C 90 % 1036,7 hPa 0,0 l/m 0 min 0 min 0 W/m 9,7 km/h (2 Bft) 95,74 %
03.01.2019 17:36 4,4 C 3,9 C 3,3 C 90 % 1036,7 hPa 0,0 l/m 0 min 0 min 0 W/m 6,4 km/h (2 Bft) 98,31 %
03.01.2019 17:38 4,4 C 3,9 C 3,3 C 91 % 1036,6 hPa 0,0 l/m 0 min 0 min 0 W/m 6,4 km/h (2 Bft) 97,14 %
03.01.2019 17:40 4,4 C 3,9 C 3,3 C 91 % 1036,6 hPa 0,0 l/m 0 min 0 min 0 W/m 6,4 km/h (2 Bft) 97,87 %
03.01.2019 17:42 4,4 C 3,9 C 3,3 C 91 % 1036,7 hPa 0,0 l/m 0 min 0 min 0 W/m 6,4 km/h (2 Bft) 97,87 %
03.01.2019 17:44 4,4 C 3,9 C 3,3 C 91 % 1036,7 hPa 0,0 l/m 0 min 0 min 0 W/m 9,7 km/h (2 Bft) 97,83 %
03.01.2019 17:46 4,4 C 3,9 C 3,3 C 91 % 1036,6 hPa 0,0 l/m 0 min 0 min 0 W/m 9,7 km/h (2 Bft) 97,87 %
03.01.2019 17:48 4,4 C 3,9 C 3,3 C 91 % 1036,6 hPa 0,0 l/m 0 min 0 min 0 W/m 9,7 km/h (2 Bft) 97,87 %
03.01.2019 17:50 4,4 C 3,9 C 3,3 C 91 % 1036,6 hPa 0,0 l/m 0 min 0 min 0 W/m 12,9 km/h (3 Bft) 97,87 %
03.01.2019 17:52 4,4 C 3,9 C 3,3 C 91 % 1036,6 hPa 0,0 l/m 0 min 0 min 0 W/m 12,9 km/h (3 Bft) 95,74 %
03.01.2019 17:54 4,4 C 3,9 C 3,3 C 91 % 1036,5 hPa 0,0 l/m 0 min 0 min 0 W/m 12,9 km/h (3 Bft) 95,74 %
03.01.2019 17:56 4,3 C 3,9 C 3,3 C 91 % 1036,6 hPa 0,0 l/m 0 min 0 min 0 W/m 6,4 km/h (2 Bft) 95,65 %
03.01.2019 17:58 4,3 C 3,9 C 3,3 C 91 % 1036,6 hPa 0,0 l/m 0 min 0 min 0 W/m 9,7 km/h (2 Bft) 97,87 %
03.01.2019 18:00 4,3 C 3,9 C 3,3 C 91 % 1036,7 hPa 0,0 l/m 0 min 0 min 0 W/m 9,7 km/h (2 Bft) 95,74 %
03.01.2019 18:02 4,3 C 3,9 C 3,3 C 91 % 1036,7 hPa 0,0 l/m 0 min 2 min 0 W/m 9,7 km/h (2 Bft) 91,49 %
03.01.2019 18:04 4,3 C 3,9 C 3,3 C 91 % 1036,7 hPa 0,0 l/m 0 min 2 min 0 W/m 12,9 km/h (3 Bft) 95,74 %
03.01.2019 18:08 4,3 C 3,9 C 3,3 C 91 % 1036,6 hPa 0,0 l/m 0 min 0 min 0 W/m 12,9 km/h (3 Bft) 96,77 %
03.01.2019 18:10 4,3 C 3,9 C 3,3 C 91 % 1036,6 hPa 0,0 l/m 0 min 0 min 0 W/m 9,7 km/h (2 Bft) 97,87 %
03.01.2019 18:12 4,3 C 3,9 C 3,3 C 91 % 1036,7 hPa 0,0 l/m 0 min 0 min 0 W/m 6,4 km/h (2 Bft) 95,74 %
03.01.2019 18:14 4,3 C 3,9 C 3,3 C 91 % 1036,7 hPa 0,0 l/m 0 min 0 min 0 W/m 12,9 km/h (3 Bft) 95,74 %
03.01.2019 18:16 4,3 C 3,9 C 3,3 C 91 % 1036,7 hPa 0,0 l/m 0 min 0 min 0 W/m 9,7 km/h (2 Bft) 95,74 %
03.01.2019 18:18 4,3 C 3,9 C 3,3 C 91 % 1036,7 hPa 0,0 l/m 0 min 0 min 0 W/m 9,7 km/h (2 Bft) 95,65 %
03.01.2019 18:20 4,3 C 3,9 C 3,3 C 91 % 1036,7 hPa 0,0 l/m 0 min 0 min 0 W/m 9,7 km/h (2 Bft) 93,62 %
03.01.2019 18:22 4,3 C 3,9 C 3,3 C 91 % 1036,7 hPa 0,0 l/m 0 min 0 min 0 W/m 12,9 km/h (3 Bft) 97,87 %
03.01.2019 18:24 4,3 C 3,9 C 3,3 C 91 % 1036,6 hPa 0,0 l/m 0 min 0 min 0 W/m 12,9 km/h (3 Bft) 97,87 %
03.01.2019 18:26 4,3 C 3,9 C 3,3 C 91 % 1036,6 hPa 0,0 l/m 0 min 0 min 0 W/m 9,7 km/h (2 Bft) 97,87 %
03.01.2019 18:28 4,3 C 3,9 C 3,3 C 91 % 1036,7 hPa 0,0 l/m 0 min 0 min 0 W/m 9,7 km/h (2 Bft) 97,87 %
03.01.2019 18:30 4,3 C 3,9 C 3,3 C 91 % 1036,7 hPa 0,0 l/m 0 min 0 min 0 W/m 12,9 km/h (3 Bft) 95,65 %
03.01.2019 18:32 4,3 C 3,9 C 3,3 C 91 % 1036,7 hPa 0,0 l/m 0 min 0 min 0 W/m 12,9 km/h (3 Bft) 95,74 %
03.01.2019 18:34 4,2 C 3,9 C 3,3 C 91 % 1036,6 hPa 0,0 l/m 0 min 0 min 0 W/m 9,7 km/h (2 Bft) 97,87 %
03.01.2019 18:36 4,2 C 3,9 C 3,3 C 91 % 1036,6 hPa 0,0 l/m 0 min 0 min 0 W/m 9,7 km/h (2 Bft) 96,61 %
03.01.2019 18:38 4,3 C 3,9 C 3,3 C 91 % 1036,6 hPa 0,0 l/m 0 min 0 min 0 W/m 12,9 km/h (3 Bft) 100,00 %
03.01.2019 18:40 4,2 C 3,9 C 3,3 C 91 % 1036,6 hPa 0,0 l/m 0 min 0 min 0 W/m 6,4 km/h (2 Bft) 95,74 %
03.01.2019 18:42 4,2 C 3,9 C 3,3 C 91 % 1036,7 hPa 0,0 l/m 0 min 0 min 0 W/m 12,9 km/h (3 Bft) 97,83 %
03.01.2019 18:44 4,2 C 3,9 C 3,3 C 91 % 1036,6 hPa 0,0 l/m 0 min 0 min 0 W/m 12,9 km/h (3 Bft) 93,62 %
03.01.2019 18:46 4,2 C 3,9 C 3,3 C 91 % 1036,6 hPa 0,0 l/m 0 min 0 min 0 W/m 6,4 km/h (2 Bft) 95,74 %
03.01.2019 18:48 4,2 C 3,9 C 3,3 C 91 % 1036,6 hPa 0,0 l/m 0 min 0 min 0 W/m 6,4 km/h (2 Bft) 93,62 %
03.01.2019 18:50 4,2 C 3,9 C 3,3 C 91 % 1036,6 hPa 0,0 l/m 0 min 0 min 0 W/m 6,4 km/h (2 Bft) 95,74 %
03.01.2019 18:52 4,2 C 3,9 C 3,3 C 91 % 1036,6 hPa 0,0 l/m 0 min 0 min 0 W/m 3,2 km/h (1 Bft) 97,87 %
03.01.2019 18:54 4,2 C 3,9 C 3,3 C 91 % 1036,5 hPa 0,0 l/m 0 min 0 min 0 W/m 6,4 km/h (2 Bft) 95,65 %
03.01.2019 18:56 4,2 C 3,3 C 3,3 C 91 % 1036,6 hPa 0,0 l/m 0 min 0 min 0 W/m 9,7 km/h (2 Bft) 97,87 %
03.01.2019 18:58 4,2 C 3,3 C 3,3 C 91 % 1036,6 hPa 0,0 l/m 0 min 2 min 0 W/m 9,7 km/h (2 Bft) 97,87 %
03.01.2019 19:00 4,2 C 3,3 C 2,8 C 91 % 1036,6 hPa 0,0 l/m 0 min 2 min 0 W/m 6,4 km/h (2 Bft) 97,87 %
03.01.2019 19:02 4,2 C 3,3 C 2,8 C 91 % 1036,6 hPa 0,0 l/m 0 min 2 min 0 W/m 6,4 km/h (2 Bft) 95,74 %
03.01.2019 19:04 4,2 C 3,3 C 2,8 C 91 % 1036,6 hPa 0,0 l/m 0 min 2 min 0 W/m 9,7 km/h (2 Bft) 95,74 %
03.01.2019 19:06 4,2 C 3,3 C 2,8 C 91 % 1036,7 hPa 0,0 l/m 0 min 0 min 0 W/m 6,4 km/h (2 Bft) 96,55 %
03.01.2019 19:08 4,2 C 3,3 C 2,8 C 91 % 1036,7 hPa 0,0 l/m 0 min 0 min 0 W/m 6,4 km/h (2 Bft) 97,14 %
03.01.2019 19:10 4,2 C 3,3 C 2,8 C 91 % 1036,7 hPa 0,0 l/m 0 min 0 min 0 W/m 6,4 km/h (2 Bft) 97,87 %
03.01.2019 19:12 4,2 C 3,3 C 2,8 C 91 % 1036,7 hPa 0,0 l/m 0 min 0 min 0 W/m 9,7 km/h (2 Bft) 97,87 %
03.01.2019 19:14 4,2 C 3,3 C 2,8 C 91 % 1036,6 hPa 0,0 l/m 0 min 0 min 0 W/m 6,4 km/h (2 Bft) 97,87 %
03.01.2019 19:16 4,2 C 3,3 C 2,8 C 91 % 1036,6 hPa 0,0 l/m 0 min 0 min 0 W/m 6,4 km/h (2 Bft) 97,87 %
03.01.2019 19:18 4,2 C 3,3 C 2,8 C 91 % 1036,6 hPa 0,0 l/m 0 min 0 min 0 W/m 12,9 km/h (3 Bft) 97,83 %
03.01.2019 19:20 4,2 C 2,8 C 2,8 C 91 % 1036,5 hPa 0,0 l/m 0 min 0 min 0 W/m 6,4 km/h (2 Bft) 95,74 %
03.01.2019 19:22 4,2 C 2,8 C 2,2 C 91 % 1036,6 hPa 0,0 l/m 0 min 0 min 0 W/m 9,7 km/h (2 Bft) 93,62 %
03.01.2019 19:24 4,2 C 2,8 C 2,2 C 91 % 1036,6 hPa 0,0 l/m 0 min 0 min 0 W/m 6,4 km/h (2 Bft) 97,87 %
03.01.2019 19:26 4,1 C 2,8 C 2,2 C 91 % 1036,5 hPa 0,0 l/m 0 min 0 min 0 W/m 12,9 km/h (3 Bft) 97,87 %
03.01.2019 19:28 4,1 C 2,8 C 2,2 C 91 % 1036,5 hPa 0,0 l/m 0 min 0 min 0 W/m 6,4 km/h (2 Bft) 97,83 %
03.01.2019 19:30 4,1 C 2,8 C 2,2 C 91 % 1036,6 hPa 0,0 l/m 0 min 0 min 0 W/m 6,4 km/h (2 Bft) 100,00 %
03.01.2019 19:32 4,1 C 2,8 C 2,2 C 91 % 1036,5 hPa 0,0 l/m 0 min 0 min 0 W/m 6,4 km/h (2 Bft) 95,74 %
03.01.2019 19:34 4,1 C 2,8 C 2,2 C 91 % 1036,6 hPa 0,0 l/m 0 min 0 min 0 W/m 12,9 km/h (3 Bft) 100,00 %
03.01.2019 19:36 4,0 C 2,8 C 2,8 C 91 % 1036,6 hPa 0,0 l/m 0 min 0 min 0 W/m 9,7 km/h (2 Bft) 98,31 %
03.01.2019 19:38 4,0 C 3,3 C 2,8 C 91 % 1036,7 hPa 0,0 l/m 0 min 0 min 0 W/m 12,9 km/h (3 Bft) 100,00 %
03.01.2019 19:40 4,0 C 3,3 C 2,8 C 91 % 1036,6 hPa 0,0 l/m 0 min 0 min 0 W/m 16,1 km/h (3 Bft) 97,83 %
03.01.2019 19:42 4,0 C 3,3 C 2,8 C 92 % 1036,7 hPa 0,0 l/m 0 min 0 min 0 W/m 12,9 km/h (3 Bft) 100,00 %
03.01.2019 19:44 3,9 C 3,3 C 2,8 C 92 % 1036,7 hPa 0,0 l/m 0 min 0 min 0 W/m 12,9 km/h (3 Bft) 100,00 %
03.01.2019 19:46 4,0 C 3,3 C 2,8 C 92 % 1036,7 hPa 0,0 l/m 0 min 0 min 0 W/m 6,4 km/h (2 Bft) 100,00 %
03.01.2019 19:48 4,0 C 3,3 C 2,8 C 92 % 1036,6 hPa 0,0 l/m 0 min 0 min 0 W/m 9,7 km/h (2 Bft) 100,00 %
03.01.2019 19:50 3,9 C 3,3 C 2,8 C 92 % 1036,6 hPa 0,0 l/m 0 min 0 min 0 W/m 9,7 km/h (2 Bft) 100,00 %
03.01.2019 19:52 3,9 C 3,3 C 2,8 C 92 % 1036,7 hPa 0,0 l/m 0 min 0 min 0 W/m 9,7 km/h (2 Bft) 100,00 %
03.01.2019 19:54 3,9 C 3,3 C 2,8 C 92 % 1036,7 hPa 0,0 l/m 0 min 0 min 0 W/m 9,7 km/h (2 Bft) 100,00 %
03.01.2019 19:56 4,0 C 3,3 C 2,8 C 92 % 1036,7 hPa 0,0 l/m 0 min 0 min 0 W/m 6,4 km/h (2 Bft) 100,00 %
03.01.2019 19:58 3,9 C 3,3 C 2,8 C 92 % 1036,8 hPa 0,0 l/m 0 min 0 min 0 W/m 9,7 km/h (2 Bft) 100,00 %
03.01.2019 20:00 3,9 C 3,3 C 2,8 C 92 % 1036,8 hPa 0,0 l/m 0 min 0 min 0 W/m 9,7 km/h (2 Bft) 100,00 %
03.01.2019 20:02 3,9 C 3,3 C 2,8 C 92 % 1036,8 hPa 0,0 l/m 0 min 0 min 0 W/m 9,7 km/h (2 Bft) 100,00 %
03.01.2019 20:04 3,9 C 3,3 C 2,8 C 92 % 1036,9 hPa 0,0 l/m 0 min 0 min 0 W/m 6,4 km/h (2 Bft) 100,00 %
03.01.2019 20:06 3,9 C 3,3 C 2,8 C 92 % 1036,8 hPa 0,0 l/m 0 min 0 min 0 W/m 9,7 km/h (2 Bft) 100,00 %
03.01.2019 20:08 3,9 C 3,3 C 2,8 C 92 % 1036,8 hPa 0,0 l/m 0 min 0 min 0 W/m 12,9 km/h (3 Bft) 100,00 %
03.01.2019 20:10 3,9 C 3,3 C 2,8 C 92 % 1036,8 hPa 0,0 l/m 0 min 0 min 0 W/m 6,4 km/h (2 Bft) 100,00 %
03.01.2019 20:12 3,9 C 3,3 C 2,8 C 92 % 1036,9 hPa 0,0 l/m 0 min 0 min 0 W/m 9,7 km/h (2 Bft) 97,87 %
03.01.2019 20:14 3,9 C 3,3 C 2,8 C 92 % 1036,8 hPa 0,0 l/m 0 min 0 min 0 W/m 12,9 km/h (3 Bft) 100,00 %
03.01.2019 20:16 3,9 C 3,3 C 2,8 C 92 % 1036,8 hPa 0,0 l/m 0 min 0 min 0 W/m 9,7 km/h (2 Bft) 100,00 %
03.01.2019 20:18 3,9 C 3,3 C 2,8 C 92 % 1036,8 hPa 0,0 l/m 0 min 0 min 0 W/m 9,7 km/h (2 Bft) 97,87 %
03.01.2019 20:20 3,9 C 3,3 C 2,8 C 92 % 1036,7 hPa 0,0 l/m 0 min 0 min 0 W/m 9,7 km/h (2 Bft) 95,74 %
03.01.2019 20:22 3,9 C 3,3 C 2,8 C 92 % 1036,8 hPa 0,0 l/m 0 min 0 min 0 W/m 6,4 km/h (2 Bft) 97,87 %
03.01.2019 20:24 3,9 C 3,3 C 2,8 C 92 % 1036,8 hPa 0,0 l/m 0 min 0 min 0 W/m 12,9 km/h (3 Bft) 97,87 %
03.01.2019 20:26 3,9 C 3,3 C 2,8 C 92 % 1036,7 hPa 0,0 l/m 0 min 0 min 0 W/m 12,9 km/h (3 Bft) 97,83 %
03.01.2019 20:28 3,9 C 3,3 C 2,8 C 92 % 1036,7 hPa 0,0 l/m 0 min 0 min 0 W/m 12,9 km/h (3 Bft) 100,00 %
03.01.2019 20:30 3,9 C 3,3 C 2,8 C 92 % 1036,7 hPa 0,0 l/m 0 min 0 min 0 W/m 9,7 km/h (2 Bft) 97,87 %
03.01.2019 20:32 3,9 C 3,3 C 2,8 C 92 % 1036,7 hPa 0,0 l/m 0 min 0 min 0 W/m 6,4 km/h (2 Bft) 97,87 %
03.01.2019 20:34 3,9 C 3,3 C 2,8 C 92 % 1036,8 hPa 0,0 l/m 0 min 0 min 0 W/m 12,9 km/h (3 Bft) 97,87 %
03.01.2019 20:36 3,9 C 3,3 C 2,8 C 92 % 1036,9 hPa 0,0 l/m 0 min 0 min 0 W/m 9,7 km/h (2 Bft) 100,00 %
03.01.2019 20:38 3,9 C 3,3 C 2,8 C 93 % 1036,9 hPa 0,0 l/m 0 min 0 min 0 W/m 12,9 km/h (3 Bft) 100,00 %
03.01.2019 20:40 3,9 C 3,3 C 2,8 C 93 % 1036,8 hPa 0,0 l/m 0 min 0 min 0 W/m 9,7 km/h (2 Bft) 97,87 %
03.01.2019 20:42 3,9 C 3,3 C 2,8 C 93 % 1037,0 hPa 0,0 l/m 0 min 0 min 0 W/m 16,1 km/h (3 Bft) 97,87 %
03.01.2019 20:44 3,9 C 3,3 C 2,8 C 93 % 1037,0 hPa 0,0 l/m 0 min 0 min 0 W/m 9,7 km/h (2 Bft) 100,00 %
03.01.2019 20:46 3,9 C 3,3 C 2,8 C 93 % 1037,0 hPa 0,0 l/m 0 min 0 min 0 W/m 12,9 km/h (3 Bft) 100,00 %
03.01.2019 20:48 3,9 C 3,3 C 2,8 C 93 % 1037,1 hPa 0,0 l/m 0 min 0 min 0 W/m 9,7 km/h (2 Bft) 100,00 %
03.01.2019 20:50 3,9 C 3,3 C 2,8 C 93 % 1037,1 hPa 0,0 l/m 0 min 0 min 0 W/m 6,4 km/h (2 Bft) 97,83 %
03.01.2019 20:52 3,9 C 3,3 C 2,8 C 93 % 1037,0 hPa 0,0 l/m 0 min 0 min 0 W/m 12,9 km/h (3 Bft) 97,87 %
03.01.2019 20:54 3,9 C 3,3 C 2,8 C 93 % 1037,0 hPa 0,0 l/m 0 min 0 min 0 W/m 16,1 km/h (3 Bft) 97,87 %
03.01.2019 20:56 3,9 C 3,3 C 2,8 C 93 % 1037,1 hPa 0,0 l/m 0 min 0 min 0 W/m 12,9 km/h (3 Bft) 97,87 %
03.01.2019 20:58 3,9 C 3,3 C 2,8 C 93 % 1037,1 hPa 0,0 l/m 0 min 0 min 0 W/m 16,1 km/h (3 Bft) 93,62 %
03.01.2019 21:00 3,9 C 3,3 C 2,8 C 93 % 1037,1 hPa 0,0 l/m 0 min 0 min 0 W/m 12,9 km/h (3 Bft) 97,87 %
03.01.2019 21:02 3,9 C 3,3 C 2,8 C 93 % 1037,1 hPa 0,0 l/m 0 min 0 min 0 W/m 12,9 km/h (3 Bft) 95,65 %
03.01.2019 21:04 3,9 C 3,3 C 2,8 C 93 % 1037,1 hPa 0,0 l/m 0 min 0 min 0 W/m 9,7 km/h (2 Bft) 95,74 %
03.01.2019 21:06 4,0 C 3,3 C 2,8 C 93 % 1037,1 hPa 0,0 l/m 0 min 0 min 0 W/m 9,7 km/h (2 Bft) 96,61 %
03.01.2019 21:08 4,0 C 3,3 C 2,8 C 93 % 1037,1 hPa 0,0 l/m 0 min 0 min 0 W/m 12,9 km/h (3 Bft) 94,29 %
03.01.2019 21:10 4,0 C 3,3 C 2,8 C 93 % 1037,1 hPa 0,0 l/m 0 min 0 min 0 W/m 16,1 km/h (3 Bft) 95,74 %
03.01.2019 21:12 4,0 C 3,3 C 2,8 C 93 % 1037,1 hPa 0,0 l/m 0 min 0 min 0 W/m 12,9 km/h (3 Bft) 95,74 %
03.01.2019 21:14 4,0 C 3,3 C 2,8 C 93 % 1037,0 hPa 0,0 l/m 0 min 0 min 0 W/m 9,7 km/h (2 Bft) 95,65 %
03.01.2019 21:16 4,0 C 3,3 C 2,8 C 93 % 1037,0 hPa 0,0 l/m 0 min 0 min 0 W/m 3,2 km/h (1 Bft) 97,87 %
03.01.2019 21:18 4,0 C 3,3 C 2,8 C 93 % 1037,1 hPa 0,0 l/m 0 min 0 min 0 W/m 6,4 km/h (2 Bft) 93,62 %
03.01.2019 21:20 4,0 C 3,3 C 2,8 C 93 % 1037,0 hPa 0,0 l/m 0 min 0 min 0 W/m 6,4 km/h (2 Bft) 93,62 %
03.01.2019 21:22 4,0 C 3,3 C 2,8 C 93 % 1037,0 hPa 0,0 l/m 0 min 0 min 0 W/m 12,9 km/h (3 Bft) 95,74 %
03.01.2019 21:24 4,0 C 3,3 C 2,8 C 93 % 1037,0 hPa 0,0 l/m 0 min 0 min 0 W/m 6,4 km/h (2 Bft) 95,74 %
03.01.2019 21:26 4,0 C 3,3 C 2,8 C 93 % 1037,0 hPa 0,0 l/m 0 min 0 min 0 W/m 9,7 km/h (2 Bft) 93,48 %
03.01.2019 21:28 3,9 C 3,3 C 2,8 C 93 % 1037,0 hPa 0,0 l/m 0 min 0 min 0 W/m 6,4 km/h (2 Bft) 93,62 %
03.01.2019 21:30 3,9 C 3,3 C 2,8 C 93 % 1037,0 hPa 0,0 l/m 0 min 0 min 0 W/m 6,4 km/h (2 Bft) 91,49 %
03.01.2019 21:32 3,9 C 3,3 C 2,8 C 93 % 1036,9 hPa 0,0 l/m 0 min 0 min 0 W/m 6,4 km/h (2 Bft) 93,62 %
03.01.2019 21:34 3,9 C 3,3 C 2,8 C 93 % 1037,0 hPa 0,0 l/m 0 min 0 min 0 W/m 9,7 km/h (2 Bft) 93,62 %
03.01.2019 21:36 3,9 C 3,3 C 2,8 C 93 % 1037,0 hPa 0,0 l/m 0 min 0 min 0 W/m 12,9 km/h (3 Bft) 93,10 %
03.01.2019 21:38 3,9 C 3,3 C 2,8 C 93 % 1037,0 hPa 0,0 l/m 0 min 0 min 0 W/m 9,7 km/h (2 Bft) 100,00 %
03.01.2019 21:40 3,9 C 3,3 C 2,8 C 93 % 1036,9 hPa 0,0 l/m 0 min 0 min 0 W/m 12,9 km/h (3 Bft) 93,62 %
03.01.2019 21:42 3,9 C 3,3 C 2,8 C 93 % 1036,9 hPa 0,0 l/m 0 min 0 min 0 W/m 9,7 km/h (2 Bft) 95,74 %
03.01.2019 21:44 3,9 C 3,3 C 2,8 C 93 % 1036,9 hPa 0,0 l/m 0 min 0 min 0 W/m 12,9 km/h (3 Bft) 93,62 %
03.01.2019 21:46 3,9 C 3,3 C 2,8 C 93 % 1036,9 hPa 0,0 l/m 0 min 0 min 0 W/m 6,4 km/h (2 Bft) 95,74 %
03.01.2019 21:48 3,9 C 3,3 C 2,8 C 93 % 1037,0 hPa 0,0 l/m 0 min 0 min 0 W/m 6,4 km/h (2 Bft) 95,65 %
03.01.2019 21:50 3,9 C 3,3 C 2,8 C 93 % 1036,9 hPa 0,0 l/m 0 min 0 min 0 W/m 6,4 km/h (2 Bft) 94,00 %
03.01.2019 21:52 3,9 C 3,3 C 2,8 C 93 % 1036,9 hPa 0,0 l/m 0 min 0 min 0 W/m 9,7 km/h (2 Bft) 95,74 %
03.01.2019 21:54 3,9 C 3,3 C 2,8 C 93 % 1036,9 hPa 0,0 l/m 0 min 0 min 0 W/m 12,9 km/h (3 Bft) 95,74 %
03.01.2019 21:56 3,9 C 3,3 C 2,8 C 93 % 1036,8 hPa 0,0 l/m 0 min 0 min 0 W/m 6,4 km/h (2 Bft) 93,62 %
03.01.2019 21:58 3,9 C 3,3 C 2,8 C 93 % 1036,9 hPa 0,0 l/m 0 min 0 min 0 W/m 6,4 km/h (2 Bft) 95,74 %
03.01.2019 22:00 3,9 C 3,3 C 2,8 C 93 % 1036,9 hPa 0,0 l/m 0 min 0 min 0 W/m 9,7 km/h (2 Bft) 95,65 %
03.01.2019 22:02 3,9 C 3,3 C 2,8 C 93 % 1036,9 hPa 0,0 l/m 0 min 0 min 0 W/m 9,7 km/h (2 Bft) 97,92 %
03.01.2019 22:04 3,9 C 3,3 C 2,8 C 93 % 1036,9 hPa 0,0 l/m 0 min 0 min 0 W/m 6,4 km/h (2 Bft) 95,74 %
03.01.2019 22:06 3,9 C 3,3 C 2,8 C 93 % 1036,9 hPa 0,0 l/m 0 min 0 min 0 W/m 12,9 km/h (3 Bft) 98,31 %
03.01.2019 22:08 3,9 C 3,3 C 2,8 C 93 % 1036,9 hPa 0,0 l/m 0 min 0 min 0 W/m 12,9 km/h (3 Bft) 97,14 %
03.01.2019 22:10 3,9 C 3,3 C 2,8 C 93 % 1037,0 hPa 0,0 l/m 0 min 0 min 0 W/m 9,7 km/h (2 Bft) 100,00 %
03.01.2019 22:12 3,9 C 3,3 C 2,8 C 93 % 1037,0 hPa 0,0 l/m 0 min 0 min 0 W/m 6,4 km/h (2 Bft) 100,00 %
03.01.2019 22:14 3,9 C 3,3 C 2,8 C 93 % 1037,0 hPa 0,0 l/m 0 min 0 min 0 W/m 9,7 km/h (2 Bft) 95,65 %
03.01.2019 22:16 3,8 C 3,3 C 2,8 C 93 % 1036,9 hPa 0,0 l/m 0 min 0 min 0 W/m 12,9 km/h (3 Bft) 100,00 %
03.01.2019 22:18 3,8 C 3,3 C 2,8 C 93 % 1036,9 hPa 0,0 l/m 0 min 0 min 0 W/m 9,7 km/h (2 Bft) 100,00 %
03.01.2019 22:20 3,8 C 3,3 C 2,8 C 93 % 1036,9 hPa 0,0 l/m 0 min 0 min 0 W/m 9,7 km/h (2 Bft) 97,87 %
03.01.2019 22:22 3,8 C 3,3 C 2,8 C 93 % 1036,8 hPa 0,0 l/m 0 min 0 min 0 W/m 9,7 km/h (2 Bft) 87,23 %
03.01.2019 22:24 3,8 C 3,3 C 2,8 C 93 % 1036,9 hPa 0,0 l/m 0 min 0 min 0 W/m 9,7 km/h (2 Bft) 97,83 %
03.01.2019 22:26 3,8 C 3,3 C 2,8 C 93 % 1036,9 hPa 0,0 l/m 0 min 0 min 0 W/m 16,1 km/h (3 Bft) 93,62 %
03.01.2019 22:28 3,8 C 3,3 C 2,8 C 93 % 1036,9 hPa 0,0 l/m 0 min 0 min 0 W/m 6,4 km/h (2 Bft) 91,49 %
03.01.2019 22:30 3,8 C 3,3 C 2,8 C 93 % 1036,9 hPa 0,0 l/m 0 min 0 min 0 W/m 12,9 km/h (3 Bft) 89,36 %
03.01.2019 22:32 3,8 C 3,3 C 2,8 C 93 % 1036,9 hPa 0,0 l/m 0 min 0 min 0 W/m 6,4 km/h (2 Bft) 95,74 %
03.01.2019 22:34 3,8 C 3,3 C 2,8 C 93 % 1036,9 hPa 0,0 l/m 0 min 0 min 0 W/m 9,7 km/h (2 Bft) 89,36 %
03.01.2019 22:36 3,8 C 3,3 C 2,8 C 93 % 1036,9 hPa 0,0 l/m 0 min 0 min 0 W/m 6,4 km/h (2 Bft) 86,21 %
03.01.2019 22:38 3,8 C 3,3 C 2,8 C 93 % 1036,8 hPa 0,0 l/m 0 min 0 min 0 W/m 16,1 km/h (3 Bft) 91,43 %
03.01.2019 22:40 3,8 C 3,3 C 2,8 C 93 % 1036,8 hPa 0,0 l/m 0 min 0 min 0 W/m 12,9 km/h (3 Bft) 100,00 %
03.01.2019 22:42 3,8 C 3,3 C 2,8 C 93 % 1036,9 hPa 0,0 l/m 0 min 0 min 0 W/m 9,7 km/h (2 Bft) 100,00 %
03.01.2019 22:44 3,8 C 3,3 C 2,8 C 93 % 1037,0 hPa 0,0 l/m 0 min 0 min 0 W/m 9,7 km/h (2 Bft) 100,00 %
03.01.2019 22:46 3,8 C 3,3 C 2,8 C 93 % 1037,0 hPa 0,0 l/m 0 min 0 min 0 W/m 9,7 km/h (2 Bft) 100,00 %
03.01.2019 22:48 3,8 C 3,3 C 2,8 C 93 % 1037,0 hPa 0,0 l/m 0 min 0 min 0 W/m 12,9 km/h (3 Bft) 97,83 %
03.01.2019 22:50 3,7 C 3,3 C 2,8 C 93 % 1037,0 hPa 0,0 l/m 0 min 0 min 0 W/m 12,9 km/h (3 Bft) 100,00 %
03.01.2019 22:52 3,7 C 2,8 C 2,8 C 93 % 1036,9 hPa 0,0 l/m 0 min 0 min 0 W/m 9,7 km/h (2 Bft) 100,00 %
03.01.2019 22:54 3,7 C 2,8 C 2,2 C 93 % 1036,9 hPa 0,0 l/m 0 min 0 min 0 W/m 9,7 km/h (2 Bft) 100,00 %
03.01.2019 22:56 3,7 C 2,8 C 2,2 C 93 % 1037,0 hPa 0,0 l/m 0 min 0 min 0 W/m 6,4 km/h (2 Bft) 100,00 %
03.01.2019 22:58 3,7 C 2,8 C 2,2 C 93 % 1037,0 hPa 0,0 l/m 0 min 0 min 0 W/m 6,4 km/h (2 Bft) 100,00 %
03.01.2019 23:00 3,7 C 2,8 C 2,2 C 93 % 1036,9 hPa 0,0 l/m 0 min 0 min 0 W/m 9,7 km/h (2 Bft) 100,00 %
03.01.2019 23:02 3,7 C 2,8 C 2,2 C 93 % 1036,9 hPa 0,0 l/m 0 min 0 min 0 W/m 6,4 km/h (2 Bft) 100,00 %
03.01.2019 23:04 3,7 C 2,8 C 2,2 C 93 % 1036,9 hPa 0,0 l/m 0 min 0 min 0 W/m 6,4 km/h (2 Bft) 100,00 %
03.01.2019 23:06 3,7 C 2,8 C 2,2 C 93 % 1037,0 hPa 0,0 l/m 0 min 0 min 0 W/m 6,4 km/h (2 Bft) 100,00 %
03.01.2019 23:08 3,6 C 2,8 C 2,2 C 93 % 1037,0 hPa 0,0 l/m 0 min 0 min 0 W/m 6,4 km/h (2 Bft) 100,00 %
03.01.2019 23:10 3,6 C 2,8 C 2,2 C 93 % 1036,9 hPa 0,0 l/m 0 min 0 min 0 W/m 9,7 km/h (2 Bft) 100,00 %
03.01.2019 23:12 3,6 C 2,8 C 2,2 C 93 % 1036,9 hPa 0,0 l/m 0 min 0 min 0 W/m 6,4 km/h (2 Bft) 97,83 %
03.01.2019 23:14 3,6 C 2,8 C 2,2 C 93 % 1036,9 hPa 0,0 l/m 0 min 0 min 0 W/m 9,7 km/h (2 Bft) 100,00 %
03.01.2019 23:16 3,6 C 2,8 C 2,2 C 93 % 1036,9 hPa 0,0 l/m 0 min 0 min 0 W/m 9,7 km/h (2 Bft) 97,87 %
03.01.2019 23:18 3,6 C 2,8 C 2,2 C 93 % 1036,8 hPa 0,0 l/m 0 min 0 min 0 W/m 9,7 km/h (2 Bft) 100,00 %
03.01.2019 23:20 3,5 C 2,8 C 2,2 C 93 % 1036,9 hPa 0,0 l/m 0 min 0 min 0 W/m 6,4 km/h (2 Bft) 97,87 %
03.01.2019 23:22 3,5 C 2,8 C 2,2 C 93 % 1036,8 hPa 0,0 l/m 0 min 0 min 0 W/m 12,9 km/h (3 Bft) 100,00 %
03.01.2019 23:24 3,5 C 2,8 C 2,2 C 93 % 1036,9 hPa 0,0 l/m 0 min 0 min 0 W/m 9,7 km/h (2 Bft) 100,00 %
03.01.2019 23:26 3,5 C 2,8 C 2,2 C 93 % 1036,9 hPa 0,0 l/m 0 min 0 min 0 W/m 12,9 km/h (3 Bft) 97,87 %
03.01.2019 23:28 3,4 C 2,8 C 2,2 C 93 % 1036,9 hPa 0,0 l/m 0 min 0 min 0 W/m 9,7 km/h (2 Bft) 100,00 %
03.01.2019 23:30 3,4 C 2,8 C 2,2 C 93 % 1036,9 hPa 0,0 l/m 0 min 0 min 0 W/m 6,4 km/h (2 Bft) 100,00 %
03.01.2019 23:32 3,4 C 2,8 C 2,2 C 93 % 1036,9 hPa 0,0 l/m 0 min 0 min 0 W/m 9,7 km/h (2 Bft) 97,87 %
03.01.2019 23:34 3,4 C 2,8 C 2,2 C 93 % 1036,9 hPa 0,0 l/m 0 min 0 min 0 W/m 6,4 km/h (2 Bft) 97,87 %
03.01.2019 23:36 3,4 C 2,2 C 1,7 C 93 % 1036,9 hPa 0,0 l/m 0 min 0 min 0 W/m 3,2 km/h (1 Bft) 95,65 %
03.01.2019 23:38 3,4 C 2,2 C 1,7 C 93 % 1036,9 hPa 0,0 l/m 0 min 0 min 0 W/m 6,4 km/h (2 Bft) 97,87 %
03.01.2019 23:40 3,4 C 2,2 C 1,7 C 93 % 1036,8 hPa 0,0 l/m 0 min 0 min 0 W/m 6,4 km/h (2 Bft) 95,74 %
03.01.2019 23:42 3,4 C 2,2 C 1,7 C 93 % 1036,9 hPa 0,0 l/m 0 min 0 min 0 W/m 3,2 km/h (1 Bft) 95,74 %
03.01.2019 23:44 3,3 C 2,2 C 1,7 C 93 % 1036,9 hPa 0,0 l/m 0 min 0 min 0 W/m 9,7 km/h (2 Bft) 95,74 %
03.01.2019 23:46 3,3 C 2,2 C 1,7 C 93 % 1036,9 hPa 0,0 l/m 0 min 0 min 0 W/m 6,4 km/h (2 Bft) 95,65 %
03.01.2019 23:48 3,3 C 2,2 C 1,7 C 93 % 1036,9 hPa 0,0 l/m 0 min 0 min 0 W/m 6,4 km/h (2 Bft) 95,74 %
03.01.2019 23:50 3,3 C 2,2 C 1,7 C 93 % 1036,9 hPa 0,0 l/m 0 min 0 min 0 W/m 6,4 km/h (2 Bft) 97,87 %
03.01.2019 23:52 3,3 C 2,2 C 1,7 C 93 % 1036,9 hPa 0,0 l/m 0 min 0 min 0 W/m 6,4 km/h (2 Bft) 95,74 %
03.01.2019 23:54 3,3 C 2,2 C 1,7 C 93 % 1036,9 hPa 0,0 l/m 0 min 0 min 0 W/m 6,4 km/h (2 Bft) 97,87 %
03.01.2019 23:56 3,2 C 2,2 C 1,7 C 93 % 1037,0 hPa 0,0 l/m 0 min 0 min 0 W/m 6,4 km/h (2 Bft) 95,74 %
03.01.2019 23:58 3,2 C 2,2 C 1,7 C 93 % 1037,0 hPa 0,0 l/m 0 min 0 min 0 W/m 0,0 km/h (0 Bft) 97,83 %
_ Min-Zeit 00:00 00:00 00:00 15:32 00:02 - - - - 00:08 22:36
Minimum _ 0,1 C 0,0 C -0,6 C 87 % 1035,9 hPa - - - - 0,0 km/h (0 Bft) 86,21 %
_ Max-Zeit 14:28 12:26 12:26 10:00 10:12 11:44 12:24 04:22 12:26 12:48 01:14
Maximum _ 5,3 C 7,8 C 5,6 C 97 % 1037,1 hPa 0,2 l/m 2 min 2 min 223 W/m 22,5 km/h
NW (4 Bft)
100,00 %
Durchschnitt _ 3,3 C 2,9 C 2,4 C 93 % 1036,5 hPa #0,2 l/m #8 min. #48 min. 60 W/m 7,7 km/h (2 Bft) 97,31 %
© 2019 W. Hausmann